Time,TemperatureF,DewpointF,PressureIn,WindDirection,WindDirectionDegrees,WindSpeedMPH,WindSpeedGustMPH,Humidity,HourlyPrecipIn,Conditions,Clouds,dailyrainin,SoftwareType,DateUTC
2013-01-22 00:01:00,57.4,56.5,29.44,South,180,1.6,1.6,97,0.00,CLR,,0.00,WeatherDisplay:10.37,2013-01-21 22:01:00,
2013-01-22 00:02:00,57.4,56.5,29.44,South,180,2.3,2.3,97,0.00,CLR,,0.00,WeatherDisplay:10.37,2013-01-21 22:02:00,
2013-01-22 00:03:00,57.2,56.1,29.44,WNW,292,3.1,3.1,96,0.00,CLR,,0.00,WeatherDisplay:10.37,2013-01-21 22:03:00,
2013-01-22 00:06:00,57.2,54.9,29.44,WSW,248,5.8,5.8,92,0.00,CLR,,0.00,WeatherDisplay:10.37,2013-01-21 22:06:00,
2013-01-22 00:07:00,57.2,54.6,29.44,SSW,202,5.8,5.8,91,0.00,CLR,,0.00,WeatherDisplay:10.37,2013-01-21 22:07:00,
2013-01-22 00:08:00,57.2,54.6,29.44,SSW,202,5.8,5.8,91,0.00,CLR,,0.00,WeatherDisplay:10.37,2013-01-21 22:08:00,
2013-01-22 00:09:00,57.2,54.6,29.44,SSE,158,5.8,5.8,91,0.00,CLR,,0.00,WeatherDisplay:10.37,2013-01-21 22:09:00,
2013-01-22 00:12:00,57.2,54.3,29.44,SSW,202,8.1,8.1,90,0.00,CLR,,0.00,WeatherDisplay:10.37,2013-01-21 22:12:00,
2013-01-22 00:13:00,57.2,54.3,29.44,SW,225,4.6,4.6,90,0.00,CLR,,0.00,WeatherDisplay:10.37,2013-01-21 22:13:00,
2013-01-22 00:14:00,57.2,54.3,29.44,SW,225,1.4,2.0,90,0.00,CLR,,0.00,WeatherDisplay:10.37,2013-01-21 22:14:00,
2013-01-22 00:17:00,57.2,54.3,29.44,SW,225,5.8,5.8,90,0.00,CLR,,0.00,WeatherDisplay:10.37,2013-01-21 22:17:00,
2013-01-22 00:19:00,57.2,54.3,29.44,WSW,248,3.5,3.5,90,0.00,CLR,,0.00,WeatherDisplay:10.37,2013-01-21 22:19:00,
2013-01-22 00:22:00,57.2,54.3,29.44,WSW,248,2.3,2.3,90,0.00,CLR,,0.00,WeatherDisplay:10.37,2013-01-21 22:22:00,
2013-01-22 00:24:00,57.2,54.6,29.44,WSW,248,3.5,3.5,91,0.00,CLR,,0.00,WeatherDisplay:10.37,2013-01-21 22:24:00,
2013-01-22 00:27:00,57.0,54.4,29.44,WSW,248,2.4,2.4,91,0.00,CLR,,0.00,WeatherDisplay:10.37,2013-01-21 22:27:00,
2013-01-22 00:29:00,57.0,54.4,29.44,WSW,248,4.6,4.6,91,0.00,CLR,,0.00,WeatherDisplay:10.37,2013-01-21 22:29:00,
2013-01-22 00:32:00,57.0,54.7,29.44,WSW,248,4.6,4.6,92,0.00,CLR,,0.00,WeatherDisplay:10.37,2013-01-21 22:32:00,
2013-01-22 00:34:00,57.2,55.5,29.44,West,270,6.2,6.2,94,0.00,CLR,,0.00,WeatherDisplay:10.37,2013-01-21 22:34:00,
2013-01-22 00:37:00,57.2,55.8,29.44,West,270,5.8,5.8,95,0.00,CLR,,0.00,WeatherDisplay:10.37,2013-01-21 22:37:00,
2013-01-22 00:39:00,57.0,55.6,29.44,WSW,248,5.6,5.6,95,0.00,CLR,,0.00,WeatherDisplay:10.37,2013-01-21 22:39:00,
2013-01-22 00:42:00,57.0,55.9,29.44,West,270,6.9,6.9,96,0.00,CLR,,0.00,WeatherDisplay:10.37,2013-01-21 22:42:00,
2013-01-22 00:43:00,57.0,55.9,29.44,WNW,292,6.9,6.9,96,0.00,CLR,,0.00,WeatherDisplay:10.37,2013-01-21 22:43:00,
2013-01-22 00:44:00,56.8,55.4,29.44,West,270,5.8,5.8,95,0.00,CLR,,0.00,WeatherDisplay:10.37,2013-01-21 22:44:00,
2013-01-22 00:47:00,56.7,55.2,29.44,WNW,292,5.6,5.6,95,0.00,CLR,,0.00,WeatherDisplay:10.37,2013-01-21 22:47:00,
2013-01-22 00:48:00,56.7,55.2,29.44,WNW,292,5.8,5.8,95,0.00,CLR,,0.00,WeatherDisplay:10.37,2013-01-21 22:48:00,
2013-01-22 00:49:00,56.7,55.2,29.44,WNW,292,5.8,5.8,95,0.00,CLR,,0.00,WeatherDisplay:10.37,2013-01-21 22:49:00,
2013-01-22 00:52:00,56.5,55.1,29.44,West,270,4.6,4.6,95,0.00,CLR,,0.00,WeatherDisplay:10.37,2013-01-21 22:52:00,
2013-01-22 00:53:00,56.5,54.8,29.44,WNW,292,3.5,3.5,94,0.00,CLR,,0.00,WeatherDisplay:10.37,2013-01-21 22:53:00,
2013-01-22 00:54:00,56.3,54.6,29.44,WNW,292,5.8,5.8,94,0.00,CLR,,0.00,WeatherDisplay:10.37,2013-01-21 22:54:00,
2013-01-22 00:57:00,56.3,54.6,29.44,WSW,248,3.5,3.5,94,0.00,CLR,,0.00,WeatherDisplay:10.37,2013-01-21 22:57:00,
2013-01-22 00:58:00,56.1,54.4,29.44,West,270,2.3,2.3,94,0.00,CLR,,0.00,WeatherDisplay:10.37,2013-01-21 22:58:00,
2013-01-22 00:59:00,56.1,54.4,29.44,West,270,3.5,3.5,94,0.00,CLR,,0.00,WeatherDisplay:10.37,2013-01-21 22:59:00,
2013-01-22 01:02:00,55.9,54.2,29.44,West,270,0.0,0.0,94,0.00,CLR,,0.00,WeatherDisplay:10.37,2013-01-21 23:02:00,
2013-01-22 01:03:00,55.9,54.2,29.44,West,270,0.0,0.0,94,0.00,CLR,,0.00,WeatherDisplay:10.37,2013-01-21 23:03:00,
2013-01-22 01:04:00,55.9,54.2,29.44,West,270,0.0,0.0,94,0.00,CLR,,0.00,WeatherDisplay:10.37,2013-01-21 23:04:00,
2013-01-22 01:07:00,55.8,54.1,29.44,WNW,292,3.5,3.5,94,0.00,CLR,,0.00,WeatherDisplay:10.37,2013-01-21 23:07:00,
2013-01-22 01:09:00,55.8,54.1,29.44,WNW,292,3.5,3.5,94,0.00,CLR,,0.00,WeatherDisplay:10.37,2013-01-21 23:09:00,
2013-01-22 01:10:00,55.6,53.9,29.44,WNW,292,3.5,3.5,94,0.00,CLR,,0.00,WeatherDisplay:10.37,2013-01-21 23:10:00,
2013-01-22 01:12:00,55.6,53.9,29.44,WNW,292,2.3,2.3,94,0.00,CLR,,0.00,WeatherDisplay:10.37,2013-01-21 23:12:00,
2013-01-22 01:14:00,55.4,53.7,29.44,NW,315,2.3,2.3,94,0.00,CLR,,0.00,WeatherDisplay:10.37,2013-01-21 23:14:00,
2013-01-22 01:15:00,55.4,53.7,29.44,WNW,291,1.0,7.0,94,0.00,CLR,,0.00,WeatherDisplay:10.37,2013-01-21 23:15:00,
2013-01-22 01:17:00,55.8,54.1,29.44,WNW,292,5.8,5.8,94,0.00,CLR,,0.00,WeatherDisplay:10.37,2013-01-21 23:17:00,
2013-01-22 01:19:00,55.8,54.1,29.44,WNW,292,2.9,2.9,94,0.00,CLR,,0.00,WeatherDisplay:10.37,2013-01-21 23:19:00,
2013-01-22 01:20:00,55.8,54.1,29.44,WNW,288,2.0,8.0,94,0.00,CLR,,0.00,WeatherDisplay:10.37,2013-01-21 23:20:00,
2013-01-22 01:22:00,55.8,54.1,29.44,WSW,248,2.3,2.3,94,0.00,CLR,,0.00,WeatherDisplay:10.37,2013-01-21 23:22:00,
2013-01-22 01:24:00,55.8,54.1,29.44,WSW,248,4.6,4.6,94,0.00,CLR,,0.00,WeatherDisplay:10.37,2013-01-21 23:24:00,
2013-01-22 01:25:00,55.8,54.1,29.44,WSW,248,3.5,3.5,94,0.00,CLR,,0.00,WeatherDisplay:10.37,2013-01-21 23:25:00,
2013-01-22 01:28:00,55.8,54.1,29.44,WSW,248,3.5,3.5,94,0.00,CLR,,0.00,WeatherDisplay:10.37,2013-01-21 23:28:00,
2013-01-22 01:29:00,55.8,54.1,29.44,West,270,4.6,4.6,94,0.00,CLR,,0.00,WeatherDisplay:10.37,2013-01-21 23:29:00,
2013-01-22 01:30:00,55.8,54.1,29.44,WSW,257,2.0,5.0,94,0.00,CLR,,0.00,WeatherDisplay:10.37,2013-01-21 23:30:00,
2013-01-22 01:33:00,55.8,53.5,29.44,WNW,292,4.6,4.6,92,0.00,CLR,,0.00,WeatherDisplay:10.37,2013-01-21 23:33:00,
2013-01-22 01:34:00,55.8,53.2,29.44,WSW,248,5.9,5.9,91,0.00,CLR,,0.00,WeatherDisplay:10.37,2013-01-21 23:34:00,
2013-01-22 01:35:00,55.8,53.2,29.44,WSW,249,3.0,7.0,91,0.00,CLR,,0.00,WeatherDisplay:10.37,2013-01-21 23:35:00,
2013-01-22 01:38:00,55.9,51.8,29.44,WNW,292,5.8,5.8,86,0.00,CLR,,0.00,WeatherDisplay:10.37,2013-01-21 23:38:00,
2013-01-22 01:39:00,55.9,51.2,29.44,SW,225,6.9,6.9,84,0.00,CLR,,0.00,WeatherDisplay:10.37,2013-01-21 23:39:00,
2013-01-22 01:40:00,55.9,51.2,29.44,WSW,252,5.0,7.0,84,0.00,CLR,,0.00,WeatherDisplay:10.37,2013-01-21 23:40:00,
2013-01-22 01:43:00,56.1,50.7,29.44,West,270,5.8,5.8,82,0.00,CLR,,0.00,WeatherDisplay:10.37,2013-01-21 23:43:00,
2013-01-22 01:45:00,56.1,50.4,29.44,West,262,5.0,8.0,81,0.00,CLR,,0.00,WeatherDisplay:10.37,2013-01-21 23:45:00,
2013-01-22 01:48:00,56.1,51.0,29.47,West,270,4.6,4.6,83,0.00,CLR,,0.00,WeatherDisplay:10.37,2013-01-21 23:48:00,
2013-01-22 01:50:00,56.1,50.7,29.47,WNW,292,4.6,4.6,82,0.00,CLR,,0.00,WeatherDisplay:10.37,2013-01-21 23:50:00,
2013-01-22 01:53:00,56.1,50.7,29.47,WSW,248,9.2,9.2,82,0.00,CLR,,0.00,WeatherDisplay:10.37,2013-01-21 23:53:00,
2013-01-22 01:55:00,56.3,51.2,29.47,WSW,248,7.6,7.6,83,0.00,CLR,,0.00,WeatherDisplay:10.37,2013-01-21 23:55:00,
2013-01-22 01:58:00,56.3,51.2,29.47,WSW,248,6.9,6.9,83,0.00,CLR,,0.00,WeatherDisplay:10.37,2013-01-21 23:58:00,
2013-01-22 02:00:00,56.3,51.2,29.47,WSW,248,5.8,5.8,83,0.00,CLR,,0.00,WeatherDisplay:10.37,2013-01-22 00:00:00,
2013-01-22 02:03:00,56.3,51.2,29.47,WSW,248,3.5,3.5,83,0.00,CLR,,0.00,WeatherDisplay:10.37,2013-01-22 00:03:00,
2013-01-22 02:05:00,56.3,51.2,29.47,WNW,292,3.5,3.5,83,0.00,CLR,,0.00,WeatherDisplay:10.37,2013-01-22 00:05:00,
2013-01-22 02:09:00,56.3,50.9,29.47,WNW,292,8.1,8.1,82,0.00,CLR,,0.00,WeatherDisplay:10.37,2013-01-22 00:09:00,
2013-01-22 02:10:00,56.3,50.9,29.47,West,270,8.1,8.1,82,0.00,CLR,,0.00,WeatherDisplay:10.37,2013-01-22 00:10:00,
2013-01-22 02:11:00,56.3,50.9,29.47,WSW,248,8.1,8.1,82,0.00,CLR,,0.00,WeatherDisplay:10.37,2013-01-22 00:11:00,
2013-01-22 02:14:00,56.1,51.0,29.47,WSW,248,7.4,0.0,83,0.00,CLR,,0.00,WeatherDisplay:10.37,2013-01-22 00:14:00,
2013-01-22 02:15:00,56.3,50.9,29.47,WSW,248,6.9,6.9,82,0.00,CLR,,0.00,WeatherDisplay:10.37,2013-01-22 00:15:00,
2013-01-22 02:16:00,56.3,50.9,29.47,West,270,6.9,6.9,82,0.00,CLR,,0.00,WeatherDisplay:10.37,2013-01-22 00:16:00,
2013-01-22 02:19:00,56.3,50.5,29.47,West,270,3.5,3.5,81,0.00,CLR,,0.00,WeatherDisplay:10.37,2013-01-22 00:19:00,
2013-01-22 02:21:00,56.3,50.9,29.47,WSW,248,3.5,3.5,82,0.00,CLR,,0.00,WeatherDisplay:10.37,2013-01-22 00:21:00,
2013-01-22 02:24:00,56.3,50.5,29.47,WSW,248,4.6,4.6,81,0.00,CLR,,0.00,WeatherDisplay:10.37,2013-01-22 00:24:00,
2013-01-22 02:26:00,56.3,50.5,29.47,WSW,248,3.5,3.5,81,0.00,CLR,,0.00,WeatherDisplay:10.37,2013-01-22 00:26:00,
2013-01-22 02:29:00,56.1,50.4,29.47,SW,225,4.6,4.6,81,0.00,CLR,,0.00,WeatherDisplay:10.37,2013-01-22 00:29:00,
2013-01-22 02:31:00,56.1,50.4,29.47,SW,225,3.5,3.5,81,0.00,CLR,,0.00,WeatherDisplay:10.37,2013-01-22 00:31:00,
2013-01-22 02:34:00,56.1,50.4,29.47,WSW,248,3.5,3.5,81,0.00,CLR,,0.00,WeatherDisplay:10.37,2013-01-22 00:34:00,
2013-01-22 02:36:00,56.1,50.0,29.47,SSW,202,5.8,5.8,80,0.00,CLR,,0.00,WeatherDisplay:10.37,2013-01-22 00:36:00,
2013-01-22 02:37:00,56.1,50.0,29.47,SSE,158,5.9,5.9,80,0.00,CLR,,0.00,WeatherDisplay:10.37,2013-01-22 00:37:00,
2013-01-22 02:40:00,56.3,48.8,29.47,West,270,5.8,6.0,76,0.00,CLR,,0.00,WeatherDisplay:10.37,2013-01-22 00:40:00,
2013-01-22 02:41:00,56.5,48.6,29.47,WSW,248,5.8,5.8,75,0.00,CLR,,0.00,WeatherDisplay:10.37,2013-01-22 00:41:00,
2013-01-22 02:42:00,56.5,48.6,29.47,WNW,292,6.2,6.2,75,0.00,CLR,,0.00,WeatherDisplay:10.37,2013-01-22 00:42:00,
2013-01-22 02:46:00,56.7,48.1,29.44,SSE,158,5.8,5.8,73,0.00,CLR,,0.00,WeatherDisplay:10.37,2013-01-22 00:46:00,
2013-01-22 02:47:00,56.7,48.5,29.44,SE,135,5.4,5.4,74,0.00,CLR,,0.00,WeatherDisplay:10.37,2013-01-22 00:47:00,
2013-01-22 02:51:00,56.7,47.7,29.44,SSW,202,4.9,4.9,72,0.00,CLR,,0.00,WeatherDisplay:10.37,2013-01-22 00:51:00,
2013-01-22 02:52:00,56.7,47.7,29.44,SW,225,4.6,4.6,72,0.00,CLR,,0.00,WeatherDisplay:10.37,2013-01-22 00:52:00,
2013-01-22 02:56:00,56.8,47.5,29.44,South,180,6.9,6.9,71,0.00,CLR,,0.00,WeatherDisplay:10.37,2013-01-22 00:56:00,
2013-01-22 02:57:00,56.8,47.5,29.44,WSW,248,8.1,8.1,71,0.00,CLR,,0.00,WeatherDisplay:10.37,2013-01-22 00:57:00,
2013-01-22 03:01:00,56.8,47.5,29.44,South,180,7.6,7.6,71,0.00,CLR,,0.00,WeatherDisplay:10.37,2013-01-22 01:01:00,
2013-01-22 03:02:00,57.0,47.3,29.44,South,180,9.2,9.2,70,0.00,CLR,,0.00,WeatherDisplay:10.37,2013-01-22 01:02:00,
2013-01-22 03:06:00,57.0,46.9,29.44,SSW,202,5.8,5.8,69,0.00,CLR,,0.00,WeatherDisplay:10.37,2013-01-22 01:06:00,
2013-01-22 03:07:00,57.2,47.1,29.44,South,180,5.8,5.8,69,0.00,CLR,,0.00,WeatherDisplay:10.37,2013-01-22 01:07:00,
2013-01-22 03:11:00,57.2,46.7,29.44,South,180,9.8,9.8,68,0.00,CLR,,0.00,WeatherDisplay:10.37,2013-01-22 01:11:00,
2013-01-22 03:12:00,57.2,46.7,29.44,WSW,248,11.5,11.5,68,0.00,CLR,,0.00,WeatherDisplay:10.37,2013-01-22 01:12:00,
2013-01-22 03:16:00,57.0,46.9,29.47,WSW,248,6.9,6.9,69,0.00,CLR,,0.00,WeatherDisplay:10.37,2013-01-22 01:16:00,
2013-01-22 03:17:00,57.0,46.9,29.47,SW,225,3.8,3.8,69,0.00,CLR,,0.00,WeatherDisplay:10.37,2013-01-22 01:17:00,
2013-01-22 03:21:00,57.0,47.3,29.47,WSW,248,5.8,5.8,70,0.00,CLR,,0.00,WeatherDisplay:10.37,2013-01-22 01:21:00,
2013-01-22 03:22:00,57.0,47.3,29.47,SSW,202,9.2,9.2,70,0.00,CLR,,0.00,WeatherDisplay:10.37,2013-01-22 01:22:00,
2013-01-22 03:27:00,57.2,47.1,29.47,SW,225,5.8,6.2,69,0.00,CLR,,0.00,WeatherDisplay:10.37,2013-01-22 01:27:00,
2013-01-22 03:32:00,57.2,47.1,29.47,SSW,202,6.9,6.9,69,0.00,CLR,,0.00,WeatherDisplay:10.37,2013-01-22 01:32:00,
2013-01-22 03:33:00,57.2,47.1,29.47,SSW,202,6.9,6.9,69,0.00,CLR,,0.00,WeatherDisplay:10.37,2013-01-22 01:33:00,
2013-01-22 03:38:00,57.2,46.7,29.47,SSE,158,9.2,9.2,68,0.00,CLR,,0.00,WeatherDisplay:10.37,2013-01-22 01:38:00,
2013-01-22 03:43:00,57.2,46.3,29.47,SSW,202,5.8,5.8,67,0.00,CLR,,0.00,WeatherDisplay:10.37,2013-01-22 01:43:00,
2013-01-22 03:48:00,57.2,45.9,29.47,SSW,202,6.9,6.9,66,0.00,CLR,,0.00,WeatherDisplay:10.37,2013-01-22 01:48:00,
2013-01-22 03:53:00,57.0,46.6,29.47,SSW,202,6.9,6.9,68,0.00,CLR,,0.00,WeatherDisplay:10.37,2013-01-22 01:53:00,
2013-01-22 03:58:00,56.8,46.8,29.47,SW,225,2.6,2.6,69,0.00,CLR,,0.00,WeatherDisplay:10.37,2013-01-22 01:58:00,
2013-01-22 04:03:00,56.7,46.6,29.47,SSW,202,2.3,2.3,69,0.00,CLR,,0.00,WeatherDisplay:10.37,2013-01-22 02:03:00,
2013-01-22 04:08:00,56.7,45.4,29.47,WNW,292,4.6,4.6,66,0.00,CLR,,0.00,WeatherDisplay:10.37,2013-01-22 02:08:00,
2013-01-22 04:09:00,56.7,45.4,29.47,WSW,248,4.6,4.6,66,0.00,CLR,,0.00,WeatherDisplay:10.37,2013-01-22 02:09:00,
2013-01-22 04:13:00,56.7,45.0,29.47,WSW,248,5.8,5.8,65,0.00,CLR,,0.00,WeatherDisplay:10.37,2013-01-22 02:13:00,
2013-01-22 04:14:00,56.7,45.0,29.47,WNW,292,5.9,5.9,65,0.00,CLR,,0.00,WeatherDisplay:10.37,2013-01-22 02:14:00,
2013-01-22 04:19:00,56.5,44.9,29.47,SW,225,0.0,0.0,65,0.00,CLR,,0.00,WeatherDisplay:10.37,2013-01-22 02:19:00,
2013-01-22 04:24:00,56.3,44.7,29.47,SW,225,3.8,3.8,65,0.00,CLR,,0.00,WeatherDisplay:10.37,2013-01-22 02:24:00,
2013-01-22 04:29:00,56.3,44.7,29.47,SSW,202,3.3,3.3,65,0.00,CLR,,0.00,WeatherDisplay:10.37,2013-01-22 02:29:00,
2013-01-22 04:34:00,56.1,44.5,29.47,SSW,202,3.5,3.5,65,0.00,CLR,,0.00,WeatherDisplay:10.37,2013-01-22 02:34:00,
2013-01-22 04:35:00,56.1,44.5,29.47,SSW,202,2.9,2.9,65,0.00,CLR,,0.00,WeatherDisplay:10.37,2013-01-22 02:35:00,
2013-01-22 04:39:00,56.1,44.9,29.47,South,180,2.3,2.3,66,0.00,CLR,,0.00,WeatherDisplay:10.37,2013-01-22 02:39:00,
2013-01-22 04:40:00,56.1,44.9,29.47,SSW,200,2.0,5.0,66,0.00,CLR,,0.00,WeatherDisplay:10.37,2013-01-22 02:40:00,
2013-01-22 04:44:00,56.1,45.3,29.47,SSW,202,3.5,3.5,67,0.00,CLR,,0.00,WeatherDisplay:10.37,2013-01-22 02:44:00,
2013-01-22 04:45:00,56.1,45.3,29.47,SW,225,6.9,6.9,67,0.00,CLR,,0.00,WeatherDisplay:10.37,2013-01-22 02:45:00,
2013-01-22 04:49:00,56.1,44.9,29.44,SSW,202,5.8,5.8,66,0.00,CLR,,0.00,WeatherDisplay:10.37,2013-01-22 02:49:00,
2013-01-22 04:50:00,56.1,44.9,29.44,SSW,202,5.8,5.8,66,0.00,CLR,,0.00,WeatherDisplay:10.37,2013-01-22 02:50:00,
2013-01-22 04:54:00,56.1,44.5,29.44,South,180,6.0,6.0,65,0.00,CLR,,0.00,WeatherDisplay:10.37,2013-01-22 02:54:00,
2013-01-22 04:55:00,56.1,44.5,29.44,SSW,200,2.0,8.0,65,0.00,CLR,,0.00,WeatherDisplay:10.37,2013-01-22 02:55:00,
2013-01-22 05:00:00,56.1,44.1,29.44,SW,222,3.0,8.0,64,0.00,CLR,,0.00,WeatherDisplay:10.37,2013-01-22 03:00:00,
2013-01-22 05:01:00,56.1,44.1,29.44,SSW,202,4.6,4.6,64,0.00,CLR,,0.00,WeatherDisplay:10.37,2013-01-22 03:01:00,
2013-01-22 05:05:00,56.1,43.7,29.44,SSW,202,2.3,2.3,63,0.00,CLR,,0.00,WeatherDisplay:10.37,2013-01-22 03:05:00,
2013-01-22 05:06:00,56.1,43.7,29.44,SSW,202,3.8,3.8,63,0.00,CLR,,0.00,WeatherDisplay:10.37,2013-01-22 03:06:00,
2013-01-22 05:10:00,56.1,43.7,29.44,SSW,202,5.8,5.8,63,0.00,CLR,,0.00,WeatherDisplay:10.37,2013-01-22 03:10:00,
2013-01-22 05:11:00,56.3,43.4,29.44,SSW,202,5.8,5.8,62,0.00,CLR,,0.00,WeatherDisplay:10.37,2013-01-22 03:11:00,
2013-01-22 05:15:00,56.3,43.4,29.44,SSW,202,5.8,5.8,62,0.00,CLR,,0.00,WeatherDisplay:10.37,2013-01-22 03:15:00,
2013-01-22 05:16:00,56.3,43.4,29.44,SSW,202,5.8,5.8,62,0.00,CLR,,0.00,WeatherDisplay:10.37,2013-01-22 03:16:00,
2013-01-22 05:20:00,56.3,43.4,29.47,SSW,202,4.6,4.6,62,0.00,CLR,,0.00,WeatherDisplay:10.37,2013-01-22 03:20:00,
2013-01-22 05:21:00,56.3,43.9,29.47,SSW,202,3.5,3.5,63,0.00,CLR,,0.00,WeatherDisplay:10.37,2013-01-22 03:21:00,
2013-01-22 05:25:00,56.3,44.3,29.47,SSW,202,6.9,6.9,64,0.00,CLR,,0.00,WeatherDisplay:10.37,2013-01-22 03:25:00,
2013-01-22 05:26:00,56.3,44.3,29.47,SSW,202,6.9,6.9,64,0.00,CLR,,0.00,WeatherDisplay:10.37,2013-01-22 03:26:00,
2013-01-22 05:31:00,56.1,44.5,29.47,SSW,202,5.9,5.9,65,0.00,CLR,,0.00,WeatherDisplay:10.37,2013-01-22 03:31:00,
2013-01-22 05:32:00,56.1,44.9,29.47,WSW,248,5.8,5.8,66,0.00,CLR,,0.00,WeatherDisplay:10.37,2013-01-22 03:32:00,
2013-01-22 05:36:00,56.3,45.5,29.47,SSW,202,3.5,3.5,67,0.00,CLR,,0.00,WeatherDisplay:10.37,2013-01-22 03:36:00,
2013-01-22 05:37:00,56.3,45.5,29.47,SW,225,4.6,4.6,67,0.00,CLR,,0.00,WeatherDisplay:10.37,2013-01-22 03:37:00,
2013-01-22 05:41:00,56.1,45.3,29.47,SSW,202,5.8,5.8,67,0.00,CLR,,0.00,WeatherDisplay:10.37,2013-01-22 03:41:00,
2013-01-22 05:42:00,56.1,45.3,29.47,SSW,202,5.9,5.9,67,0.00,CLR,,0.00,WeatherDisplay:10.37,2013-01-22 03:42:00,
2013-01-22 05:46:00,56.3,45.9,29.47,SW,225,5.8,5.8,68,0.00,CLR,,0.00,WeatherDisplay:10.37,2013-01-22 03:46:00,
2013-01-22 05:47:00,56.3,45.9,29.47,WSW,248,5.8,5.8,68,0.00,CLR,,0.00,WeatherDisplay:10.37,2013-01-22 03:47:00,
2013-01-22 05:48:00,56.3,45.9,29.47,South,180,6.0,6.0,68,0.00,CLR,,0.00,WeatherDisplay:10.37,2013-01-22 03:48:00,
2013-01-22 05:51:00,56.1,45.7,29.47,SW,225,4.6,4.6,68,0.00,CLR,,0.00,WeatherDisplay:10.37,2013-01-22 03:51:00,
2013-01-22 05:52:00,56.1,45.7,29.47,WSW,248,4.6,4.6,68,0.00,CLR,,0.00,WeatherDisplay:10.37,2013-01-22 03:52:00,
2013-01-22 05:53:00,56.1,45.7,29.47,WSW,248,3.5,3.5,68,0.00,CLR,,0.00,WeatherDisplay:10.37,2013-01-22 03:53:00,
2013-01-22 05:56:00,56.1,46.1,29.47,SW,225,9.2,9.2,69,0.00,CLR,,0.00,WeatherDisplay:10.37,2013-01-22 03:56:00,
2013-01-22 05:57:00,56.1,46.1,29.47,SW,225,4.6,4.6,69,0.00,CLR,,0.00,WeatherDisplay:10.37,2013-01-22 03:57:00,
2013-01-22 05:58:00,56.1,46.1,29.47,SSW,202,9.2,9.2,69,0.00,CLR,,0.00,WeatherDisplay:10.37,2013-01-22 03:58:00,
2013-01-22 06:01:00,56.1,45.7,29.47,SW,225,3.5,3.5,68,0.00,CLR,,0.00,WeatherDisplay:10.37,2013-01-22 04:01:00,
2013-01-22 06:02:00,56.1,45.7,29.47,SSW,202,4.3,4.3,68,0.00,CLR,,0.00,WeatherDisplay:10.37,2013-01-22 04:02:00,
2013-01-22 06:03:00,56.1,45.7,29.47,SSW,202,3.5,3.5,68,0.00,CLR,,0.00,WeatherDisplay:10.37,2013-01-22 04:03:00,
2013-01-22 06:07:00,56.1,46.1,29.47,SSW,202,5.4,5.4,69,0.00,CLR,,0.00,WeatherDisplay:10.37,2013-01-22 04:07:00,
2013-01-22 06:09:00,56.3,46.3,29.47,South,180,4.9,4.9,69,0.00,CLR,,0.00,WeatherDisplay:10.37,2013-01-22 04:09:00,
2013-01-22 06:12:00,56.3,47.0,29.47,SW,225,8.1,8.1,71,0.00,CLR,,0.00,WeatherDisplay:10.37,2013-01-22 04:12:00,
2013-01-22 06:14:00,56.3,47.0,29.47,SSW,202,3.1,3.1,71,0.00,CLR,,0.00,WeatherDisplay:10.37,2013-01-22 04:14:00,
2013-01-22 06:17:00,56.3,47.8,29.47,South,180,6.9,6.9,73,0.00,CLR,,0.00,WeatherDisplay:10.37,2013-01-22 04:17:00,
2013-01-22 06:19:00,56.1,47.6,29.47,WSW,248,4.6,4.6,73,0.00,CLR,,0.00,WeatherDisplay:10.37,2013-01-22 04:19:00,
2013-01-22 06:22:00,56.1,47.9,29.47,SW,225,2.3,2.3,74,0.00,CLR,,0.00,WeatherDisplay:10.37,2013-01-22 04:22:00,
2013-01-22 06:24:00,56.1,47.9,29.47,SW,225,3.5,3.5,74,0.00,CLR,,0.00,WeatherDisplay:10.37,2013-01-22 04:24:00,
2013-01-22 06:27:00,55.9,47.4,29.47,SW,225,2.9,2.9,73,0.00,CLR,,0.00,WeatherDisplay:10.37,2013-01-22 04:27:00,
2013-01-22 06:28:00,55.9,47.4,29.47,SSW,202,3.5,3.5,73,0.00,CLR,,0.00,WeatherDisplay:10.37,2013-01-22 04:28:00,
2013-01-22 06:29:00,55.9,47.8,29.47,SSW,202,2.9,2.9,74,0.00,CLR,,0.00,WeatherDisplay:10.37,2013-01-22 04:29:00,
2013-01-22 06:32:00,55.9,48.1,29.47,SSW,202,4.6,4.6,75,0.00,CLR,,0.00,WeatherDisplay:10.37,2013-01-22 04:32:00,
2013-01-22 06:33:00,55.9,48.1,29.47,SSW,202,3.5,3.5,75,0.00,CLR,,0.00,WeatherDisplay:10.37,2013-01-22 04:33:00,
2013-01-22 06:34:00,55.8,48.0,29.47,SSW,202,2.6,2.6,75,0.00,CLR,,0.00,WeatherDisplay:10.37,2013-01-22 04:34:00,
2013-01-22 06:37:00,55.8,47.6,29.47,SSW,202,2.3,2.3,74,0.00,CLR,,0.00,WeatherDisplay:10.37,2013-01-22 04:37:00,
2013-01-22 06:38:00,55.8,47.6,29.47,SSW,202,2.6,2.6,74,0.00,CLR,,0.00,WeatherDisplay:10.37,2013-01-22 04:38:00,
2013-01-22 06:39:00,55.8,48.3,29.47,SSW,202,3.5,3.5,76,0.00,CLR,,0.00,WeatherDisplay:10.37,2013-01-22 04:39:00,
2013-01-22 06:42:00,55.6,48.1,29.47,WSW,248,5.8,5.8,76,0.00,CLR,,0.00,WeatherDisplay:10.37,2013-01-22 04:42:00,
2013-01-22 06:43:00,55.6,48.1,29.47,WSW,248,3.5,3.5,76,0.00,CLR,,0.00,WeatherDisplay:10.37,2013-01-22 04:43:00,
2013-01-22 06:45:00,55.6,48.1,29.47,WSW,248,3.5,3.5,76,0.00,CLR,,0.00,WeatherDisplay:10.37,2013-01-22 04:45:00,
2013-01-22 06:47:00,55.4,48.0,29.47,SSW,202,2.3,2.3,76,0.00,CLR,,0.00,WeatherDisplay:10.37,2013-01-22 04:47:00,
2013-01-22 06:48:00,55.4,48.0,29.47,SSW,202,3.1,3.1,76,0.00,CLR,,0.00,WeatherDisplay:10.37,2013-01-22 04:48:00,
2013-01-22 06:50:00,55.4,48.3,29.47,SW,225,4.6,4.6,77,0.00,CLR,,0.00,WeatherDisplay:10.37,2013-01-22 04:50:00,
2013-01-22 06:52:00,55.4,48.3,29.47,SW,225,3.5,3.5,77,0.00,CLR,,0.00,WeatherDisplay:10.37,2013-01-22 04:52:00,
2013-01-22 06:53:00,55.4,48.3,29.47,SW,225,2.4,2.4,77,0.00,CLR,,0.00,WeatherDisplay:10.37,2013-01-22 04:53:00,
2013-01-22 06:55:00,55.4,48.7,29.47,West,270,3.6,3.6,78,0.00,CLR,,0.00,WeatherDisplay:10.37,2013-01-22 04:55:00,
2013-01-22 06:57:00,55.6,49.2,29.47,WSW,248,5.8,5.9,79,0.00,CLR,,0.00,WeatherDisplay:10.37,2013-01-22 04:57:00,
2013-01-22 06:58:00,55.8,49.3,29.47,WSW,248,9.2,9.2,79,0.00,CLR,,0.00,WeatherDisplay:10.37,2013-01-22 04:58:00,
2013-01-22 07:00:00,55.8,49.0,29.47,WSW,248,4.6,4.6,78,0.00,CLR,,0.00,WeatherDisplay:10.37,2013-01-22 05:00:00,
2013-01-22 07:01:00,55.8,49.0,29.47,SW,225,4.6,4.6,78,0.00,CLR,,0.00,WeatherDisplay:10.37,2013-01-22 05:01:00,
2013-01-22 07:03:00,55.6,48.8,29.50,WSW,248,4.6,4.6,78,0.00,CLR,,0.00,WeatherDisplay:10.37,2013-01-22 05:03:00,
2013-01-22 07:06:00,55.6,49.2,29.50,WNW,292,5.8,5.8,79,0.00,CLR,,0.00,WeatherDisplay:10.37,2013-01-22 05:06:00,
2013-01-22 07:09:00,55.6,49.2,29.50,WSW,248,3.6,3.6,79,0.00,CLR,,0.00,WeatherDisplay:10.37,2013-01-22 05:09:00,
2013-01-22 07:11:00,55.4,49.0,29.50,WSW,248,2.3,2.6,79,0.00,CLR,,0.00,WeatherDisplay:10.37,2013-01-22 05:11:00,
2013-01-22 07:12:00,55.4,49.3,29.50,WNW,292,7.4,7.4,80,0.00,CLR,,0.00,WeatherDisplay:10.37,2013-01-22 05:12:00,
2013-01-22 07:14:00,55.4,49.3,29.50,WSW,248,3.5,3.5,80,0.00,CLR,,0.00,WeatherDisplay:10.37,2013-01-22 05:14:00,
2013-01-22 07:16:00,55.4,49.3,29.50,West,270,5.8,5.8,80,0.00,CLR,,0.00,WeatherDisplay:10.37,2013-01-22 05:16:00,
2013-01-22 07:17:00,55.4,49.3,29.50,WSW,248,3.5,3.5,80,0.00,CLR,,0.00,WeatherDisplay:10.37,2013-01-22 05:17:00,
2013-01-22 07:19:00,55.2,49.2,29.50,WSW,248,2.4,2.4,80,0.00,CLR,,0.00,WeatherDisplay:10.37,2013-01-22 05:19:00,
2013-01-22 07:21:00,55.0,48.6,29.50,WSW,248,2.3,2.3,79,0.00,CLR,,0.00,WeatherDisplay:10.37,2013-01-22 05:21:00,
2013-01-22 07:22:00,55.0,48.6,29.50,WSW,248,2.9,0.0,79,0.00,CLR,,0.00,WeatherDisplay:10.37,2013-01-22 05:22:00,
2013-01-22 07:24:00,54.9,48.5,29.50,WSW,248,2.4,2.4,79,0.00,CLR,,0.00,WeatherDisplay:10.37,2013-01-22 05:24:00,
2013-01-22 07:26:00,54.9,48.5,29.50,West,270,2.3,2.3,79,0.00,CLR,,0.00,WeatherDisplay:10.37,2013-01-22 05:26:00,
2013-01-22 07:27:00,54.9,48.8,29.50,WSW,248,4.6,4.6,80,0.00,CLR,,0.00,WeatherDisplay:10.37,2013-01-22 05:27:00,
2013-01-22 07:29:00,54.7,48.6,29.50,WSW,248,2.3,2.3,80,0.00,CLR,,0.00,WeatherDisplay:10.37,2013-01-22 05:29:00,
2013-01-22 07:31:00,54.7,48.6,29.50,WSW,248,2.3,2.3,80,0.00,CLR,,0.00,WeatherDisplay:10.37,2013-01-22 05:31:00,
2013-01-22 07:32:00,54.5,48.5,29.50,WSW,248,2.3,2.3,80,0.00,CLR,,0.00,WeatherDisplay:10.37,2013-01-22 05:32:00,
2013-01-22 07:34:00,54.5,48.5,29.50,SW,225,2.3,2.3,80,0.00,CLR,,0.00,WeatherDisplay:10.37,2013-01-22 05:34:00,
2013-01-22 07:36:00,54.5,48.5,29.50,SW,225,0.0,0.0,80,0.00,CLR,,0.00,WeatherDisplay:10.37,2013-01-22 05:36:00,
2013-01-22 07:37:00,54.3,47.9,29.50,SW,225,0.0,0.0,79,0.00,CLR,,0.00,WeatherDisplay:10.37,2013-01-22 05:37:00,
2013-01-22 07:39:00,54.3,47.9,29.50,SW,225,2.3,2.3,79,0.00,CLR,,0.00,WeatherDisplay:10.37,2013-01-22 05:39:00,
2013-01-22 07:41:00,54.1,48.1,29.50,SW,225,1.1,1.1,80,0.00,CLR,,0.00,WeatherDisplay:10.37,2013-01-22 05:41:00,
2013-01-22 07:42:00,54.1,48.1,29.50,SW,225,0.0,0.9,80,0.00,CLR,,0.00,WeatherDisplay:10.37,2013-01-22 05:42:00,
2013-01-22 07:43:00,54.0,47.6,29.50,SW,225,0.0,0.0,79,0.00,CLR,,0.00,WeatherDisplay:10.37,2013-01-22 05:43:00,
2013-01-22 07:44:00,53.8,47.4,29.50,SW,225,0.0,0.0,79,0.00,CLR,,0.00,WeatherDisplay:10.37,2013-01-22 05:44:00,
2013-01-22 07:46:00,53.8,47.4,29.50,SW,225,0.0,0.0,79,0.00,CLR,,0.00,WeatherDisplay:10.37,2013-01-22 05:46:00,
2013-01-22 07:47:00,53.8,47.4,29.50,SW,225,0.0,0.0,79,0.00,CLR,,0.00,WeatherDisplay:10.37,2013-01-22 05:47:00,
2013-01-22 07:48:00,53.8,47.4,29.50,SW,225,1.4,0.0,79,0.00,CLR,,0.00,WeatherDisplay:10.37,2013-01-22 05:48:00,
2013-01-22 07:49:00,53.6,47.6,29.50,SW,225,1.1,1.1,80,0.00,CLR,,0.00,WeatherDisplay:10.37,2013-01-22 05:49:00,
2013-01-22 07:51:00,53.6,47.6,29.50,SW,225,1.1,1.1,80,0.00,CLR,,0.00,WeatherDisplay:10.37,2013-01-22 05:51:00,
2013-01-22 07:52:00,53.6,47.6,29.50,SW,225,1.1,0.0,80,0.00,CLR,,0.00,WeatherDisplay:10.37,2013-01-22 05:52:00,
2013-01-22 07:53:00,53.6,47.6,29.50,SW,225,1.1,0.0,80,0.00,CLR,,0.00,WeatherDisplay:10.37,2013-01-22 05:53:00,
2013-01-22 07:55:00,53.4,47.4,29.50,SW,225,0.0,0.0,80,0.00,CLR,,0.00,WeatherDisplay:10.37,2013-01-22 05:55:00,
2013-01-22 07:56:00,53.4,47.4,29.50,SW,225,0.0,0.0,80,0.00,CLR,,0.00,WeatherDisplay:10.37,2013-01-22 05:56:00,
2013-01-22 07:57:00,53.2,47.6,29.50,SW,225,0.0,0.0,81,0.00,CLR,,0.00,WeatherDisplay:10.37,2013-01-22 05:57:00,
2013-01-22 07:58:00,53.2,47.6,29.50,SW,225,0.0,0.0,81,0.00,CLR,,0.00,WeatherDisplay:10.37,2013-01-22 05:58:00,
2013-01-22 08:00:00,53.2,47.6,29.50,SW,225,0.0,0.0,81,0.00,CLR,,0.00,WeatherDisplay:10.37,2013-01-22 06:00:00,
2013-01-22 08:01:00,53.2,47.6,29.50,SW,225,0.0,0.0,81,0.00,CLR,,0.00,WeatherDisplay:10.37,2013-01-22 06:01:00,
2013-01-22 08:02:00,53.1,47.4,29.50,SW,225,0.0,0.0,81,0.00,CLR,,0.00,WeatherDisplay:10.37,2013-01-22 06:02:00,
2013-01-22 08:03:00,53.1,47.4,29.50,SW,225,0.0,0.0,81,0.00,CLR,,0.00,WeatherDisplay:10.37,2013-01-22 06:03:00,
2013-01-22 08:05:00,53.1,47.4,29.50,SW,225,0.0,0.0,81,0.00,CLR,,0.00,WeatherDisplay:10.37,2013-01-22 06:05:00,
2013-01-22 08:06:00,53.1,47.4,29.50,SW,225,0.0,0.0,81,0.00,CLR,,0.00,WeatherDisplay:10.37,2013-01-22 06:06:00,
2013-01-22 08:07:00,52.9,47.2,29.50,SW,225,0.0,0.0,81,0.00,CLR,,0.00,WeatherDisplay:10.37,2013-01-22 06:07:00,
2013-01-22 08:08:00,52.9,47.2,29.50,SW,225,0.0,0.0,81,0.00,CLR,,0.00,WeatherDisplay:10.37,2013-01-22 06:08:00,
2013-01-22 08:10:00,52.9,47.2,29.50,SW,225,0.0,0.0,81,0.00,CLR,,0.00,WeatherDisplay:10.37,2013-01-22 06:10:00,
2013-01-22 08:11:00,52.9,47.5,29.50,SW,225,0.0,0.0,82,0.00,CLR,,0.00,WeatherDisplay:10.37,2013-01-22 06:11:00,
2013-01-22 08:12:00,52.9,47.5,29.50,SW,225,0.0,0.0,82,0.00,CLR,,0.00,WeatherDisplay:10.37,2013-01-22 06:12:00,
2013-01-22 08:13:00,52.9,47.5,29.50,SW,225,0.0,0.0,82,0.00,CLR,,0.00,WeatherDisplay:10.37,2013-01-22 06:13:00,
2013-01-22 08:15:00,52.9,47.5,29.50,SW,225,0.0,0.0,82,0.00,CLR,,0.00,WeatherDisplay:10.37,2013-01-22 06:15:00,
2013-01-22 08:17:00,52.9,47.5,29.50,SW,225,2.2,0.0,82,0.00,CLR,,0.00,WeatherDisplay:10.37,2013-01-22 06:17:00,
2013-01-22 08:18:00,53.1,48.0,29.50,SW,225,2.3,2.3,83,0.00,CLR,,0.00,WeatherDisplay:10.37,2013-01-22 06:18:00,
2013-01-22 08:20:00,53.2,48.5,29.50,SW,225,2.3,2.3,84,0.00,CLR,,0.00,WeatherDisplay:10.37,2013-01-22 06:20:00,
2013-01-22 08:22:00,53.2,48.5,29.50,SW,225,2.3,2.3,84,0.00,CLR,,0.00,WeatherDisplay:10.37,2013-01-22 06:22:00,
2013-01-22 08:23:00,53.2,48.5,29.50,SW,225,1.1,0.0,84,0.00,CLR,,0.00,WeatherDisplay:10.37,2013-01-22 06:23:00,
2013-01-22 08:25:00,53.4,48.7,29.50,SW,225,0.0,0.0,84,0.00,CLR,,0.00,WeatherDisplay:10.37,2013-01-22 06:25:00,
2013-01-22 08:27:00,53.4,48.7,29.50,SW,225,1.4,0.0,84,0.00,CLR,,0.00,WeatherDisplay:10.37,2013-01-22 06:27:00,
2013-01-22 08:28:00,53.4,48.7,29.50,SW,225,1.1,0.0,84,0.00,CLR,,0.00,WeatherDisplay:10.37,2013-01-22 06:28:00,
2013-01-22 08:31:00,53.6,48.9,29.50,SW,225,0.0,0.0,84,0.00,CLR,,0.00,WeatherDisplay:10.37,2013-01-22 06:31:00,
2013-01-22 08:32:00,53.6,48.9,29.50,SW,225,0.0,0.0,84,0.00,CLR,,0.00,WeatherDisplay:10.37,2013-01-22 06:32:00,
2013-01-22 08:33:00,53.6,48.9,29.50,SW,225,1.1,0.0,84,0.00,CLR,,0.00,WeatherDisplay:10.37,2013-01-22 06:33:00,
2013-01-22 08:36:00,54.3,49.9,29.50,SW,225,0.0,0.0,85,0.00,CLR,,0.00,WeatherDisplay:10.37,2013-01-22 06:36:00,
2013-01-22 08:37:00,55.0,50.6,29.50,SW,225,0.0,0.0,85,0.00,CLR,,0.00,WeatherDisplay:10.37,2013-01-22 06:37:00,
2013-01-22 08:38:00,55.4,51.0,29.50,SW,225,0.0,0.0,85,0.00,CLR,,0.00,WeatherDisplay:10.37,2013-01-22 06:38:00,
2013-01-22 08:39:00,55.4,51.0,29.50,SW,225,0.0,0.0,85,0.00,CLR,,0.00,WeatherDisplay:10.37,2013-01-22 06:39:00,
2013-01-22 08:41:00,56.3,52.2,29.50,SW,225,0.0,0.0,86,0.00,CLR,,0.00,WeatherDisplay:10.37,2013-01-22 06:41:00,
2013-01-22 08:43:00,56.7,52.8,29.50,WSW,248,2.3,0.0,87,0.00,CLR,,0.00,WeatherDisplay:10.37,2013-01-22 06:43:00,
2013-01-22 08:44:00,56.8,53.0,29.50,West,270,2.3,2.3,87,0.00,CLR,,0.00,WeatherDisplay:10.37,2013-01-22 06:44:00,
2013-01-22 08:46:00,57.0,53.2,29.50,NNW,338,2.3,2.3,87,0.00,CLR,,0.00,WeatherDisplay:10.37,2013-01-22 06:46:00,
2013-01-22 08:48:00,57.6,54.0,29.50,North,0,2.0,2.0,88,0.00,CLR,,0.00,WeatherDisplay:10.37,2013-01-22 06:48:00,
2013-01-22 08:49:00,57.7,54.2,29.50,NNE,22,2.3,2.3,88,0.00,CLR,,0.00,WeatherDisplay:10.37,2013-01-22 06:49:00,
2013-01-22 08:51:00,58.1,54.2,29.50,NNE,22,1.6,1.6,87,0.00,CLR,,0.00,WeatherDisplay:10.37,2013-01-22 06:51:00,
2013-01-22 08:53:00,58.5,54.3,29.50,NNE,22,1.1,1.1,86,0.00,CLR,,0.00,WeatherDisplay:10.37,2013-01-22 06:53:00,
2013-01-22 08:54:00,58.5,54.3,29.50,NNE,22,1.1,1.1,86,0.00,CLR,,0.00,WeatherDisplay:10.37,2013-01-22 06:54:00,
2013-01-22 08:56:00,59.2,55.0,29.50,NNE,22,1.1,1.1,86,0.00,CLR,,0.00,WeatherDisplay:10.37,2013-01-22 06:56:00,
2013-01-22 08:59:00,59.7,55.5,29.50,NE,45,2.3,2.3,86,0.00,CLR,,0.00,WeatherDisplay:10.37,2013-01-22 06:59:00,
2013-01-22 09:01:00,60.1,55.2,29.53,NE,45,0.0,0.0,84,0.00,CLR,,0.00,WeatherDisplay:10.37,2013-01-22 07:01:00,
2013-01-22 09:04:00,60.6,55.8,29.53,NE,45,0.0,0.0,84,0.00,CLR,,0.00,WeatherDisplay:10.37,2013-01-22 07:04:00,
2013-01-22 09:06:00,61.0,55.8,29.53,WNW,292,2.6,2.6,83,0.00,CLR,,0.00,WeatherDisplay:10.37,2013-01-22 07:06:00,
2013-01-22 09:09:00,60.8,54.6,29.53,WNW,292,1.1,0.0,80,0.00,CLR,,0.00,WeatherDisplay:10.37,2013-01-22 07:09:00,
2013-01-22 09:12:00,60.6,53.4,29.53,WNW,292,1.1,0.0,77,0.00,CLR,,0.00,WeatherDisplay:10.37,2013-01-22 07:12:00,
2013-01-22 09:14:00,60.3,52.7,29.53,West,270,2.3,2.3,76,0.00,CLR,,0.00,WeatherDisplay:10.37,2013-01-22 07:14:00,
2013-01-22 09:17:00,59.5,50.9,29.53,West,270,1.1,0.0,73,0.00,CLR,,0.00,WeatherDisplay:10.37,2013-01-22 07:17:00,
2013-01-22 09:19:00,59.5,49.7,29.53,WNW,292,3.5,3.5,70,0.00,CLR,,0.00,WeatherDisplay:10.37,2013-01-22 07:19:00,
2013-01-22 09:20:00,59.5,49.7,29.53,WNW,292,3.5,3.5,70,0.00,CLR,,0.00,WeatherDisplay:10.37,2013-01-22 07:20:00,
2013-01-22 09:23:00,59.7,48.7,29.53,West,270,3.5,3.5,67,0.00,CLR,,0.00,WeatherDisplay:10.37,2013-01-22 07:23:00,
2013-01-22 09:24:00,59.7,49.1,29.53,West,270,3.1,3.1,68,0.00,CLR,,0.00,WeatherDisplay:10.37,2013-01-22 07:24:00,
2013-01-22 09:25:00,59.7,48.7,29.53,WSW,248,3.5,3.5,67,0.00,CLR,,0.00,WeatherDisplay:10.37,2013-01-22 07:25:00,
2013-01-22 09:28:00,60.1,48.7,29.53,WSW,248,3.5,3.5,66,0.00,CLR,,0.00,WeatherDisplay:10.37,2013-01-22 07:28:00,
2013-01-22 09:29:00,60.1,47.9,29.53,WSW,248,3.5,3.5,64,0.00,CLR,,0.00,WeatherDisplay:10.37,2013-01-22 07:29:00,
2013-01-22 09:30:00,60.1,47.9,29.53,WSW,248,3.5,3.5,64,0.00,CLR,,0.00,WeatherDisplay:10.37,2013-01-22 07:30:00,
2013-01-22 09:33:00,60.1,48.3,29.53,WNW,292,3.5,3.5,65,0.00,CLR,,0.00,WeatherDisplay:10.37,2013-01-22 07:33:00,
2013-01-22 09:34:00,60.1,47.9,29.53,WNW,292,3.5,3.5,64,0.00,CLR,,0.00,WeatherDisplay:10.37,2013-01-22 07:34:00,
2013-01-22 09:35:00,59.9,47.7,29.53,West,270,2.4,2.4,64,0.00,CLR,,0.00,WeatherDisplay:10.37,2013-01-22 07:35:00,
2013-01-22 09:38:00,59.5,46.9,29.53,WSW,248,2.3,2.3,63,0.00,CLR,,0.00,WeatherDisplay:10.37,2013-01-22 07:38:00,
2013-01-22 09:39:00,59.4,46.8,29.53,WSW,248,2.3,2.3,63,0.00,CLR,,0.00,WeatherDisplay:10.37,2013-01-22 07:39:00,
2013-01-22 09:40:00,59.4,46.8,29.53,WNW,292,3.5,3.5,63,0.00,CLR,,0.00,WeatherDisplay:10.37,2013-01-22 07:40:00,
2013-01-22 09:43:00,59.5,47.3,29.53,West,270,0.0,0.0,64,0.00,CLR,,0.00,WeatherDisplay:10.37,2013-01-22 07:43:00,
2013-01-22 09:44:00,59.5,47.3,29.53,WNW,292,1.4,1.4,64,0.00,CLR,,0.00,WeatherDisplay:10.37,2013-01-22 07:44:00,
2013-01-22 09:45:00,59.5,47.3,29.53,WNW,292,2.3,2.3,64,0.00,CLR,,0.00,WeatherDisplay:10.37,2013-01-22 07:45:00,
2013-01-22 09:48:00,59.5,47.3,29.53,WNW,292,1.1,0.0,64,0.00,CLR,,0.00,WeatherDisplay:10.37,2013-01-22 07:48:00,
2013-01-22 09:49:00,59.5,47.8,29.53,West,270,2.9,0.0,65,0.00,CLR,,0.00,WeatherDisplay:10.37,2013-01-22 07:49:00,
2013-01-22 09:50:00,59.5,47.8,29.53,West,270,2.3,2.3,65,0.00,CLR,,0.00,WeatherDisplay:10.37,2013-01-22 07:50:00,
2013-01-22 09:51:00,59.5,47.8,29.53,WSW,248,2.3,2.3,65,0.00,CLR,,0.00,WeatherDisplay:10.37,2013-01-22 07:51:00,
2013-01-22 09:53:00,59.5,47.8,29.53,West,270,2.6,2.6,65,0.00,CLR,,0.00,WeatherDisplay:10.37,2013-01-22 07:53:00,
2013-01-22 09:55:00,59.5,47.8,29.53,West,270,2.3,2.3,65,0.00,CLR,,0.00,WeatherDisplay:10.37,2013-01-22 07:55:00,
2013-01-22 09:56:00,59.7,47.9,29.53,West,270,0.0,0.0,65,0.00,CLR,,0.00,WeatherDisplay:10.37,2013-01-22 07:56:00,
2013-01-22 09:58:00,60.4,49.0,29.53,West,270,1.1,0.0,66,0.00,CLR,,0.00,WeatherDisplay:10.37,2013-01-22 07:58:00,
2013-01-22 10:00:00,60.6,49.2,29.53,West,270,0.0,0.0,66,0.00,CLR,,0.00,WeatherDisplay:10.37,2013-01-22 08:00:00,
2013-01-22 10:01:00,61.0,49.5,29.53,West,270,1.1,0.0,66,0.00,CLR,,0.00,WeatherDisplay:10.37,2013-01-22 08:01:00,
2013-01-22 10:04:00,61.7,50.2,29.56,WSW,248,3.5,3.5,66,0.00,CLR,,0.00,WeatherDisplay:10.37,2013-01-22 08:04:00,
2013-01-22 10:05:00,61.3,49.5,29.56,WSW,248,2.3,2.3,65,0.00,CLR,,0.00,WeatherDisplay:10.37,2013-01-22 08:05:00,
2013-01-22 10:06:00,61.3,49.5,29.56,WSW,248,2.3,2.3,65,0.00,CLR,,0.00,WeatherDisplay:10.37,2013-01-22 08:06:00,
2013-01-22 10:09:00,60.8,46.8,29.56,WSW,248,4.6,4.6,60,0.00,CLR,,0.00,WeatherDisplay:10.37,2013-01-22 08:09:00,
2013-01-22 10:10:00,60.4,46.5,29.56,WSW,248,3.5,3.5,60,0.00,CLR,,0.00,WeatherDisplay:10.37,2013-01-22 08:10:00,
2013-01-22 10:11:00,60.4,46.9,29.56,WSW,248,3.5,3.5,61,0.00,CLR,,0.00,WeatherDisplay:10.37,2013-01-22 08:11:00,
2013-01-22 10:14:00,60.6,47.1,29.56,SW,225,2.4,2.4,61,0.00,CLR,,0.00,WeatherDisplay:10.37,2013-01-22 08:14:00,
2013-01-22 10:15:00,60.4,46.5,29.56,WSW,248,2.3,2.3,60,0.00,CLR,,0.00,WeatherDisplay:10.37,2013-01-22 08:15:00,
2013-01-22 10:16:00,60.4,46.5,29.56,WSW,248,1.1,2.0,60,0.00,CLR,,0.00,WeatherDisplay:10.37,2013-01-22 08:16:00,
2013-01-22 10:19:00,60.4,46.9,29.56,WSW,248,1.1,1.1,61,0.00,CLR,,0.00,WeatherDisplay:10.37,2013-01-22 08:19:00,
2013-01-22 10:20:00,60.4,46.9,29.56,WSW,248,3.3,3.3,61,0.00,CLR,,0.00,WeatherDisplay:10.37,2013-01-22 08:20:00,
2013-01-22 10:21:00,60.4,46.5,29.56,WSW,248,3.5,3.5,60,0.00,CLR,,0.00,WeatherDisplay:10.37,2013-01-22 08:21:00,
2013-01-22 10:22:00,60.3,46.8,29.56,WSW,248,3.5,3.5,61,0.00,CLR,,0.00,WeatherDisplay:10.37,2013-01-22 08:22:00,
2013-01-22 10:24:00,60.4,46.9,29.56,WSW,248,2.3,2.3,61,0.00,CLR,,0.00,WeatherDisplay:10.37,2013-01-22 08:24:00,
2013-01-22 10:25:00,60.4,46.9,29.56,WSW,248,2.3,2.3,61,0.00,CLR,,0.00,WeatherDisplay:10.37,2013-01-22 08:25:00,
2013-01-22 10:26:00,60.4,46.9,29.56,WSW,248,2.3,0.0,61,0.00,CLR,,0.00,WeatherDisplay:10.37,2013-01-22 08:26:00,
2013-01-22 10:27:00,60.4,46.9,29.56,West,270,2.3,0.0,61,0.00,CLR,,0.00,WeatherDisplay:10.37,2013-01-22 08:27:00,
2013-01-22 10:29:00,60.4,46.5,29.56,West,270,3.5,3.5,60,0.00,CLR,,0.00,WeatherDisplay:10.37,2013-01-22 08:29:00,
2013-01-22 10:30:00,60.3,46.3,29.56,West,270,3.5,3.5,60,0.00,CLR,,0.00,WeatherDisplay:10.37,2013-01-22 08:30:00,
2013-01-22 10:31:00,60.3,46.3,29.56,West,270,3.5,3.5,60,0.00,CLR,,0.00,WeatherDisplay:10.37,2013-01-22 08:31:00,
2013-01-22 10:32:00,60.3,46.3,29.56,West,270,3.5,3.5,60,0.00,CLR,,0.00,WeatherDisplay:10.37,2013-01-22 08:32:00,
2013-01-22 10:34:00,60.6,47.1,29.56,West,270,2.3,2.3,61,0.00,CLR,,0.00,WeatherDisplay:10.37,2013-01-22 08:34:00,
2013-01-22 10:35:00,60.6,47.1,29.56,West,270,1.4,0.0,61,0.00,CLR,,0.00,WeatherDisplay:10.37,2013-01-22 08:35:00,
2013-01-22 10:36:00,60.6,47.1,29.56,West,270,2.3,2.3,61,0.00,CLR,,0.00,WeatherDisplay:10.37,2013-01-22 08:36:00,
2013-01-22 10:37:00,60.6,47.1,29.56,West,270,2.4,2.4,61,0.00,CLR,,0.00,WeatherDisplay:10.37,2013-01-22 08:37:00,
2013-01-22 10:40:00,60.6,47.1,29.56,WSW,248,1.1,1.1,61,0.00,CLR,,0.00,WeatherDisplay:10.37,2013-01-22 08:40:00,
2013-01-22 10:42:00,61.0,47.4,29.56,WSW,248,2.9,2.9,61,0.00,CLR,,0.00,WeatherDisplay:10.37,2013-01-22 08:42:00,
2013-01-22 10:45:00,62.1,48.0,29.56,WSW,248,3.5,3.5,60,0.00,CLR,,0.00,WeatherDisplay:10.37,2013-01-22 08:45:00,
2013-01-22 10:47:00,63.7,49.5,29.59,WSW,248,1.1,0.0,60,0.00,CLR,,0.00,WeatherDisplay:10.37,2013-01-22 08:47:00,
2013-01-22 10:50:00,64.2,49.6,29.59,SW,225,1.6,1.6,59,0.00,CLR,,0.00,WeatherDisplay:10.37,2013-01-22 08:50:00,
2013-01-22 10:51:00,64.4,49.8,29.59,SW,225,2.3,2.3,59,0.00,CLR,,0.00,WeatherDisplay:10.37,2013-01-22 08:51:00,
2013-01-22 10:52:00,64.4,48.8,29.59,WSW,248,3.5,3.5,57,0.00,CLR,,0.00,WeatherDisplay:10.37,2013-01-22 08:52:00,
2013-01-22 10:55:00,64.0,47.1,29.59,SW,225,2.3,2.3,54,0.00,CLR,,0.00,WeatherDisplay:10.37,2013-01-22 08:55:00,
2013-01-22 10:56:00,64.0,47.1,29.59,SSW,202,2.3,2.3,54,0.00,CLR,,0.00,WeatherDisplay:10.37,2013-01-22 08:56:00,
2013-01-22 10:57:00,63.9,45.9,29.59,SW,225,3.8,3.8,52,0.00,CLR,,0.00,WeatherDisplay:10.37,2013-01-22 08:57:00,
2013-01-22 11:00:00,63.7,44.2,29.59,SSW,202,3.8,3.8,49,0.00,CLR,,0.00,WeatherDisplay:10.37,2013-01-22 09:00:00,
2013-01-22 11:01:00,63.7,44.2,29.56,South,180,4.6,4.6,49,0.00,CLR,,0.00,WeatherDisplay:10.37,2013-01-22 09:01:00,
2013-01-22 11:02:00,63.9,44.9,29.56,West,270,5.6,5.6,50,0.00,CLR,,0.00,WeatherDisplay:10.37,2013-01-22 09:02:00,
2013-01-22 11:06:00,64.2,44.1,29.56,SSW,202,4.6,4.6,48,0.00,CLR,,0.00,WeatherDisplay:10.37,2013-01-22 09:06:00,
2013-01-22 11:07:00,63.9,43.2,29.56,SSW,202,4.6,4.6,47,0.00,CLR,,0.00,WeatherDisplay:10.37,2013-01-22 09:07:00,
2013-01-22 11:11:00,63.1,43.1,29.56,SSW,202,2.3,2.3,48,0.00,CLR,,0.00,WeatherDisplay:10.37,2013-01-22 09:11:00,
2013-01-22 11:12:00,63.1,43.1,29.56,SSW,202,3.6,3.6,48,0.00,CLR,,0.00,WeatherDisplay:10.37,2013-01-22 09:12:00,
2013-01-22 11:16:00,62.6,42.1,29.56,SSW,202,5.8,5.8,47,0.00,CLR,,0.00,WeatherDisplay:10.37,2013-01-22 09:16:00,
2013-01-22 11:17:00,62.6,42.6,29.59,SSW,202,2.3,2.3,48,0.00,CLR,,0.00,WeatherDisplay:10.37,2013-01-22 09:17:00,
2013-01-22 11:21:00,62.4,42.5,29.59,WSW,248,2.3,0.0,48,0.00,CLR,,0.00,WeatherDisplay:10.37,2013-01-22 09:21:00,
2013-01-22 11:22:00,62.2,42.3,29.59,SW,225,3.1,3.1,48,0.00,CLR,,0.00,WeatherDisplay:10.37,2013-01-22 09:22:00,
2013-01-22 11:26:00,62.2,41.7,29.59,SSE,158,7.8,7.8,47,0.00,CLR,,0.00,WeatherDisplay:10.37,2013-01-22 09:26:00,
2013-01-22 11:27:00,62.4,41.9,29.59,SSW,202,8.1,8.1,47,0.00,CLR,,0.00,WeatherDisplay:10.37,2013-01-22 09:27:00,
2013-01-22 11:28:00,62.4,41.9,29.59,SSW,202,4.6,4.6,47,0.00,CLR,,0.00,WeatherDisplay:10.37,2013-01-22 09:28:00,
2013-01-22 11:31:00,63.7,43.6,29.56,WSW,248,3.8,3.8,48,0.00,CLR,,0.00,WeatherDisplay:10.37,2013-01-22 09:31:00,
2013-01-22 11:32:00,64.0,43.4,29.56,SW,225,7.4,7.4,47,0.00,CLR,,0.00,WeatherDisplay:10.37,2013-01-22 09:32:00,
2013-01-22 11:33:00,64.0,43.4,29.56,SW,225,6.9,6.9,47,0.00,CLR,,0.00,WeatherDisplay:10.37,2013-01-22 09:33:00,
2013-01-22 11:36:00,64.4,42.6,29.56,SSW,202,6.9,6.9,45,0.00,CLR,,0.00,WeatherDisplay:10.37,2013-01-22 09:36:00,
2013-01-22 11:37:00,64.4,42.0,29.56,WSW,248,6.9,6.9,44,0.00,CLR,,0.00,WeatherDisplay:10.37,2013-01-22 09:37:00,
2013-01-22 11:38:00,64.0,42.3,29.56,SSE,158,6.9,6.9,45,0.00,CLR,,0.00,WeatherDisplay:10.37,2013-01-22 09:38:00,
2013-01-22 11:41:00,64.8,42.3,29.56,SSW,202,5.8,5.8,44,0.00,CLR,,0.00,WeatherDisplay:10.37,2013-01-22 09:41:00,
2013-01-22 11:42:00,64.8,42.3,29.56,SW,225,5.8,5.8,44,0.00,CLR,,0.00,WeatherDisplay:10.37,2013-01-22 09:42:00,
2013-01-22 11:43:00,64.8,42.3,29.56,South,180,6.4,6.4,44,0.00,CLR,,0.00,WeatherDisplay:10.37,2013-01-22 09:43:00,
2013-01-22 11:46:00,64.8,41.7,29.56,South,180,6.4,6.4,43,0.00,CLR,,0.00,WeatherDisplay:10.37,2013-01-22 09:46:00,
2013-01-22 11:47:00,64.6,42.2,29.56,SW,225,6.9,6.9,44,0.00,CLR,,0.00,WeatherDisplay:10.37,2013-01-22 09:47:00,
2013-01-22 11:48:00,64.4,42.0,29.56,SSW,202,5.8,5.8,44,0.00,CLR,,0.00,WeatherDisplay:10.37,2013-01-22 09:48:00,
2013-01-22 11:51:00,64.6,42.2,29.56,WSW,248,6.9,6.9,44,0.00,CLR,,0.00,WeatherDisplay:10.37,2013-01-22 09:51:00,
2013-01-22 11:52:00,64.6,42.2,29.56,SSW,202,6.9,6.9,44,0.00,CLR,,0.00,WeatherDisplay:10.37,2013-01-22 09:52:00,
2013-01-22 11:53:00,64.6,42.2,29.56,SSW,202,3.5,3.5,44,0.00,CLR,,0.00,WeatherDisplay:10.37,2013-01-22 09:53:00,
2013-01-22 11:57:00,64.6,42.2,29.56,South,180,3.5,3.5,44,0.00,CLR,,0.00,WeatherDisplay:10.37,2013-01-22 09:57:00,
2013-01-22 11:58:00,65.3,42.8,29.56,SSW,202,4.6,4.6,44,0.00,CLR,,0.00,WeatherDisplay:10.37,2013-01-22 09:58:00,
2013-01-22 12:02:00,66.0,42.9,29.56,SSE,158,5.8,5.8,43,0.00,CLR,,0.00,WeatherDisplay:10.37,2013-01-22 10:02:00,
2013-01-22 12:03:00,66.2,43.0,29.56,SSE,158,3.5,3.5,43,0.00,CLR,,0.00,WeatherDisplay:10.37,2013-01-22 10:03:00,
2013-01-22 12:07:00,64.6,40.3,29.56,South,180,6.9,6.9,41,0.00,CLR,,0.00,WeatherDisplay:10.37,2013-01-22 10:07:00,
2013-01-22 12:08:00,64.4,41.4,29.56,SSW,202,4.6,4.6,43,0.00,CLR,,0.00,WeatherDisplay:10.37,2013-01-22 10:08:00,
2013-01-22 12:12:00,63.9,40.9,29.56,SSW,202,8.1,8.1,43,0.00,CLR,,0.00,WeatherDisplay:10.37,2013-01-22 10:12:00,
2013-01-22 12:13:00,63.3,41.0,29.56,SSW,202,6.9,6.9,44,0.00,CLR,,0.00,WeatherDisplay:10.37,2013-01-22 10:13:00,
2013-01-22 12:17:00,63.1,41.4,29.53,SSE,158,4.6,4.6,45,0.00,CLR,,0.00,WeatherDisplay:10.37,2013-01-22 10:17:00,
2013-01-22 12:18:00,63.1,41.4,29.53,SSE,158,7.1,7.1,45,0.00,CLR,,0.00,WeatherDisplay:10.37,2013-01-22 10:18:00,
2013-01-22 12:22:00,64.2,42.4,29.53,SSW,202,8.1,8.1,45,0.00,CLR,,0.00,WeatherDisplay:10.37,2013-01-22 10:22:00,
2013-01-22 12:23:00,64.0,41.7,29.53,SSW,202,8.1,8.1,44,0.00,CLR,,0.00,WeatherDisplay:10.37,2013-01-22 10:23:00,
2013-01-22 12:27:00,64.4,42.0,29.53,SSW,202,3.5,3.5,44,0.00,CLR,,0.00,WeatherDisplay:10.37,2013-01-22 10:27:00,
2013-01-22 12:28:00,64.4,42.0,29.53,South,180,6.2,6.2,44,0.00,CLR,,0.00,WeatherDisplay:10.37,2013-01-22 10:28:00,
2013-01-22 12:32:00,64.8,42.3,29.53,SSW,202,5.8,5.8,44,0.00,CLR,,0.00,WeatherDisplay:10.37,2013-01-22 10:32:00,
2013-01-22 12:33:00,64.6,42.2,29.53,SSW,202,3.3,3.3,44,0.00,CLR,,0.00,WeatherDisplay:10.37,2013-01-22 10:33:00,
2013-01-22 12:34:00,64.4,41.4,29.53,SSW,202,3.5,3.5,43,0.00,CLR,,0.00,WeatherDisplay:10.37,2013-01-22 10:34:00,
2013-01-22 12:37:00,63.7,41.3,29.53,SSE,158,4.6,4.6,44,0.00,CLR,,0.00,WeatherDisplay:10.37,2013-01-22 10:37:00,
2013-01-22 12:38:00,63.7,41.3,29.53,NNW,338,4.6,4.6,44,0.00,CLR,,0.00,WeatherDisplay:10.37,2013-01-22 10:38:00,
2013-01-22 12:39:00,63.7,41.3,29.53,NW,315,3.5,3.5,44,0.00,CLR,,0.00,WeatherDisplay:10.37,2013-01-22 10:39:00,
2013-01-22 12:42:00,64.4,42.0,29.53,NW,315,2.4,2.4,44,0.00,CLR,,0.00,WeatherDisplay:10.37,2013-01-22 10:42:00,
2013-01-22 12:43:00,64.8,42.3,29.53,WNW,292,2.3,2.3,44,0.00,CLR,,0.00,WeatherDisplay:10.37,2013-01-22 10:43:00,
2013-01-22 12:44:00,65.3,43.4,29.53,NW,315,2.6,2.6,45,0.00,CLR,,0.00,WeatherDisplay:10.37,2013-01-22 10:44:00,
2013-01-22 12:47:00,66.6,44.0,29.53,SSW,202,1.6,1.6,44,0.00,CLR,,0.00,WeatherDisplay:10.37,2013-01-22 10:47:00,
2013-01-22 12:48:00,66.7,44.7,29.53,SSW,202,2.3,2.3,45,0.00,CLR,,0.00,WeatherDisplay:10.37,2013-01-22 10:48:00,
2013-01-22 12:49:00,66.7,44.7,29.53,SW,225,1.6,1.6,45,0.00,CLR,,0.00,WeatherDisplay:10.37,2013-01-22 10:49:00,
2013-01-22 12:52:00,66.6,40.8,29.53,SW,225,5.8,5.8,39,0.00,CLR,,0.00,WeatherDisplay:10.37,2013-01-22 10:52:00,
2013-01-22 12:54:00,66.9,41.8,29.53,West,270,4.6,4.6,40,0.00,CLR,,0.00,WeatherDisplay:10.37,2013-01-22 10:54:00,
2013-01-22 12:55:00,66.9,41.8,29.53,WSW,248,3.5,3.5,40,0.00,CLR,,0.00,WeatherDisplay:10.37,2013-01-22 10:55:00,
2013-01-22 12:57:00,66.9,40.5,29.53,West,270,5.8,5.8,38,0.00,CLR,,0.00,WeatherDisplay:10.37,2013-01-22 10:57:00,
2013-01-22 12:59:00,66.7,40.3,29.53,WSW,248,5.8,5.8,38,0.00,CLR,,0.00,WeatherDisplay:10.37,2013-01-22 10:59:00,
2013-01-22 13:00:00,66.7,40.3,29.53,WSW,248,3.5,3.5,38,0.00,CLR,,0.00,WeatherDisplay:10.37,2013-01-22 11:00:00,
2013-01-22 13:02:00,65.7,38.7,29.53,WNW,292,5.6,5.6,37,0.00,CLR,,0.00,WeatherDisplay:10.37,2013-01-22 11:02:00,
2013-01-22 13:04:00,65.5,38.5,29.53,WSW,248,3.5,3.5,37,0.00,CLR,,0.00,WeatherDisplay:10.37,2013-01-22 11:04:00,
2013-01-22 13:05:00,65.1,38.9,29.53,SSW,202,3.5,3.5,38,0.00,CLR,,0.00,WeatherDisplay:10.37,2013-01-22 11:05:00,
2013-01-22 13:07:00,65.3,40.3,29.53,WSW,248,3.8,3.8,40,0.00,CLR,,0.00,WeatherDisplay:10.37,2013-01-22 11:07:00,
2013-01-22 13:09:00,64.9,39.4,29.53,WSW,248,4.6,4.6,39,0.00,CLR,,0.00,WeatherDisplay:10.37,2013-01-22 11:09:00,
2013-01-22 13:10:00,64.9,39.4,29.53,WSW,248,4.6,4.6,39,0.00,CLR,,0.00,WeatherDisplay:10.37,2013-01-22 11:10:00,
2013-01-22 13:11:00,64.9,40.0,29.53,WSW,248,4.6,4.6,40,0.00,CLR,,0.00,WeatherDisplay:10.37,2013-01-22 11:11:00,
2013-01-22 13:12:00,64.6,39.7,29.53,WSW,248,5.6,5.6,40,0.00,CLR,,0.00,WeatherDisplay:10.37,2013-01-22 11:12:00,
2013-01-22 13:14:00,64.4,38.9,29.53,WSW,248,5.8,5.8,39,0.00,CLR,,0.00,WeatherDisplay:10.37,2013-01-22 11:14:00,
2013-01-22 13:15:00,64.4,38.9,29.53,WSW,248,3.5,3.6,39,0.00,CLR,,0.00,WeatherDisplay:10.37,2013-01-22 11:15:00,
2013-01-22 13:17:00,65.1,40.2,29.50,WSW,248,5.8,5.8,40,0.00,CLR,,0.00,WeatherDisplay:10.37,2013-01-22 11:17:00,
2013-01-22 13:19:00,65.7,40.7,29.50,SSW,202,4.6,4.6,40,0.00,CLR,,0.00,WeatherDisplay:10.37,2013-01-22 11:19:00,
2013-01-22 13:20:00,65.7,40.0,29.50,SSW,202,4.6,4.6,39,0.00,CLR,,0.00,WeatherDisplay:10.37,2013-01-22 11:20:00,
2013-01-22 13:22:00,65.8,40.2,29.50,SSE,158,4.6,4.6,39,0.00,CLR,,0.00,WeatherDisplay:10.37,2013-01-22 11:22:00,
2013-01-22 13:23:00,65.8,40.2,29.50,South,180,3.5,3.5,39,0.00,CLR,,0.00,WeatherDisplay:10.37,2013-01-22 11:23:00,
2013-01-22 13:25:00,66.0,40.3,29.50,SW,225,3.5,3.5,39,0.00,CLR,,0.00,WeatherDisplay:10.37,2013-01-22 11:25:00,
2013-01-22 13:28:00,66.0,39.7,29.50,SSW,202,3.5,3.5,38,0.00,CLR,,0.00,WeatherDisplay:10.37,2013-01-22 11:28:00,
2013-01-22 13:30:00,65.8,39.5,29.50,SW,225,4.6,4.6,38,0.00,CLR,,0.00,WeatherDisplay:10.37,2013-01-22 11:30:00,
2013-01-22 13:33:00,66.2,40.5,29.47,SW,225,3.6,3.6,39,0.00,CLR,,0.00,WeatherDisplay:10.37,2013-01-22 11:33:00,
2013-01-22 13:35:00,65.8,39.5,29.47,WSW,248,5.9,5.9,38,0.00,CLR,,0.00,WeatherDisplay:10.37,2013-01-22 11:35:00,
2013-01-22 13:38:00,66.0,39.7,29.47,SSW,202,4.6,4.6,38,0.00,CLR,,0.00,WeatherDisplay:10.37,2013-01-22 11:38:00,
2013-01-22 13:40:00,66.2,39.1,29.47,South,180,5.8,5.8,37,0.00,CLR,,0.00,WeatherDisplay:10.37,2013-01-22 11:40:00,
2013-01-22 13:43:00,66.4,40.0,29.47,SW,225,4.6,4.6,38,0.00,CLR,,0.00,WeatherDisplay:10.37,2013-01-22 11:43:00,
2013-01-22 13:45:00,66.6,40.1,29.47,WSW,248,3.5,3.5,38,0.00,CLR,,0.00,WeatherDisplay:10.37,2013-01-22 11:45:00,
2013-01-22 13:48:00,65.8,38.8,29.50,SSW,202,4.6,4.6,37,0.00,CLR,,0.00,WeatherDisplay:10.37,2013-01-22 11:48:00,
2013-01-22 13:50:00,65.8,39.5,29.50,SSE,158,6.2,6.2,38,0.00,CLR,,0.00,WeatherDisplay:10.37,2013-01-22 11:50:00,
2013-01-22 13:53:00,65.5,39.2,29.50,SSE,158,4.6,4.6,38,0.00,CLR,,0.00,WeatherDisplay:10.37,2013-01-22 11:53:00,
2013-01-22 13:54:00,65.5,39.2,29.50,SSW,202,4.6,4.6,38,0.00,CLR,,0.00,WeatherDisplay:10.37,2013-01-22 11:54:00,
2013-01-22 13:55:00,64.9,38.7,29.50,WSW,248,5.8,5.8,38,0.00,CLR,,0.00,WeatherDisplay:10.37,2013-01-22 11:55:00,
2013-01-22 13:58:00,64.6,39.0,29.50,South,180,4.6,4.6,39,0.00,CLR,,0.00,WeatherDisplay:10.37,2013-01-22 11:58:00,
2013-01-22 13:59:00,64.2,39.4,29.50,SW,225,5.8,5.8,40,0.00,CLR,,0.00,WeatherDisplay:10.37,2013-01-22 11:59:00,
2013-01-22 14:01:00,64.0,39.2,29.50,SSW,202,8.1,8.1,40,0.00,CLR,,0.00,WeatherDisplay:10.37,2013-01-22 12:01:00,
2013-01-22 14:03:00,64.0,40.5,29.50,SW,225,5.8,5.8,42,0.00,CLR,,0.00,WeatherDisplay:10.37,2013-01-22 12:03:00,
2013-01-22 14:04:00,64.4,40.8,29.50,SW,225,5.8,5.8,42,0.00,CLR,,0.00,WeatherDisplay:10.37,2013-01-22 12:04:00,
2013-01-22 14:06:00,64.8,41.1,29.50,SW,225,5.8,5.8,42,0.00,CLR,,0.00,WeatherDisplay:10.37,2013-01-22 12:06:00,
2013-01-22 14:07:00,64.9,40.7,29.50,SSW,202,4.6,4.6,41,0.00,CLR,,0.00,WeatherDisplay:10.37,2013-01-22 12:07:00,
2013-01-22 14:08:00,65.1,40.8,29.50,SSW,202,4.7,4.7,41,0.00,CLR,,0.00,WeatherDisplay:10.37,2013-01-22 12:08:00,
2013-01-22 14:09:00,65.1,40.2,29.50,SSW,202,5.6,5.6,40,0.00,CLR,,0.00,WeatherDisplay:10.37,2013-01-22 12:09:00,
2013-01-22 14:12:00,65.3,40.3,29.50,SW,225,6.9,6.9,40,0.00,CLR,,0.00,WeatherDisplay:10.37,2013-01-22 12:12:00,
2013-01-22 14:13:00,65.3,39.7,29.50,South,180,6.9,6.9,39,0.00,CLR,,0.00,WeatherDisplay:10.37,2013-01-22 12:13:00,
2013-01-22 14:14:00,65.7,40.7,29.50,SSW,202,6.9,6.9,40,0.00,CLR,,0.00,WeatherDisplay:10.37,2013-01-22 12:14:00,
2013-01-22 14:17:00,65.7,39.3,29.50,SSW,202,5.8,5.8,38,0.00,CLR,,0.00,WeatherDisplay:10.37,2013-01-22 12:17:00,
2013-01-22 14:19:00,65.5,39.9,29.50,SSE,158,5.8,5.8,39,0.00,CLR,,0.00,WeatherDisplay:10.37,2013-01-22 12:19:00,
2013-01-22 14:22:00,66.2,41.2,29.50,SSW,202,3.8,3.8,40,0.00,CLR,,0.00,WeatherDisplay:10.37,2013-01-22 12:22:00,
2013-01-22 14:24:00,66.6,40.8,29.50,SSW,202,5.8,5.8,39,0.00,CLR,,0.00,WeatherDisplay:10.37,2013-01-22 12:24:00,
2013-01-22 14:28:00,67.3,41.5,29.50,SSW,202,6.9,6.9,39,0.00,CLR,,0.00,WeatherDisplay:10.37,2013-01-22 12:28:00,
2013-01-22 14:29:00,67.1,41.3,29.50,South,180,8.7,8.7,39,0.00,CLR,,0.00,WeatherDisplay:10.37,2013-01-22 12:29:00,
2013-01-22 14:33:00,66.0,42.3,29.50,ESE,112,5.8,5.9,42,0.00,CLR,,0.00,WeatherDisplay:10.37,2013-01-22 12:33:00,
2013-01-22 14:34:00,65.8,42.7,29.50,South,180,4.6,4.6,43,0.00,CLR,,0.00,WeatherDisplay:10.37,2013-01-22 12:34:00,
2013-01-22 14:38:00,65.3,42.8,29.50,WSW,248,7.4,7.4,44,0.00,CLR,,0.00,WeatherDisplay:10.37,2013-01-22 12:38:00,
2013-01-22 14:39:00,64.9,42.5,29.50,SSW,202,6.9,6.9,44,0.00,CLR,,0.00,WeatherDisplay:10.37,2013-01-22 12:39:00,
2013-01-22 14:40:00,64.8,42.3,29.50,SSW,202,6.9,6.9,44,0.00,CLR,,0.00,WeatherDisplay:10.37,2013-01-22 12:40:00,
2013-01-22 14:43:00,64.2,42.4,29.50,SSW,202,5.9,5.9,45,0.00,CLR,,0.00,WeatherDisplay:10.37,2013-01-22 12:43:00,
2013-01-22 14:44:00,64.2,43.0,29.50,SSW,202,6.9,6.9,46,0.00,CLR,,0.00,WeatherDisplay:10.37,2013-01-22 12:44:00,
2013-01-22 14:45:00,64.2,43.0,29.50,South,187,6.0,10.0,46,0.00,CLR,,0.00,WeatherDisplay:10.37,2013-01-22 12:45:00,
2013-01-22 14:48:00,63.3,42.7,29.50,SSW,202,12.7,12.7,47,0.00,CLR,,0.00,WeatherDisplay:10.37,2013-01-22 12:48:00,
2013-01-22 14:49:00,63.0,42.4,29.50,SSW,202,10.4,10.4,47,0.00,CLR,,0.00,WeatherDisplay:10.37,2013-01-22 12:49:00,
2013-01-22 14:50:00,63.0,42.4,29.50,SSE,158,11.5,11.5,47,0.00,CLR,,0.00,WeatherDisplay:10.37,2013-01-22 12:50:00,
2013-01-22 14:53:00,63.1,42.0,29.50,SSE,158,15.0,15.0,46,0.00,CLR,,0.00,WeatherDisplay:10.37,2013-01-22 12:53:00,
2013-01-22 14:55:00,63.3,41.6,29.50,SSE,158,13.8,13.8,45,0.00,CLR,,0.00,WeatherDisplay:10.37,2013-01-22 12:55:00,
2013-01-22 14:58:00,63.9,42.1,29.50,SSW,202,5.8,5.8,45,0.00,CLR,,0.00,WeatherDisplay:10.37,2013-01-22 12:58:00,
2013-01-22 14:59:00,64.0,41.7,29.50,SSE,158,6.2,6.2,44,0.00,CLR,,0.00,WeatherDisplay:10.37,2013-01-22 12:59:00,
2013-01-22 15:00:00,64.2,41.8,29.50,SSE,158,9.2,9.2,44,0.00,CLR,,0.00,WeatherDisplay:10.37,2013-01-22 13:00:00,
2013-01-22 15:03:00,64.4,38.9,29.50,SSE,158,9.2,9.2,39,0.00,CLR,,0.00,WeatherDisplay:10.37,2013-01-22 13:03:00,
2013-01-22 15:04:00,64.4,38.9,29.50,SSE,158,6.9,6.9,39,0.00,CLR,,0.00,WeatherDisplay:10.37,2013-01-22 13:04:00,
2013-01-22 15:05:00,64.6,38.4,29.50,South,180,8.1,8.1,38,0.00,CLR,,0.00,WeatherDisplay:10.37,2013-01-22 13:05:00,
2013-01-22 15:10:00,65.1,38.9,29.50,SSE,158,10.0,10.0,38,0.00,CLR,,0.00,WeatherDisplay:10.37,2013-01-22 13:10:00,
2013-01-22 15:15:00,64.2,38.1,29.50,SE,135,12.7,12.7,38,0.00,CLR,,0.00,WeatherDisplay:10.37,2013-01-22 13:15:00,
2013-01-22 15:16:00,64.4,38.2,29.50,South,180,12.7,12.7,38,0.00,CLR,,0.00,WeatherDisplay:10.37,2013-01-22 13:16:00,
2013-01-22 15:20:00,64.4,38.2,29.50,SE,135,6.9,6.9,38,0.00,CLR,,0.00,WeatherDisplay:10.37,2013-01-22 13:20:00,
2013-01-22 15:21:00,64.6,38.4,29.50,SSE,158,7.6,7.6,38,0.00,CLR,,0.00,WeatherDisplay:10.37,2013-01-22 13:21:00,
2013-01-22 15:25:00,64.0,37.9,29.50,SSE,158,8.1,8.1,38,0.00,CLR,,0.00,WeatherDisplay:10.37,2013-01-22 13:25:00,
2013-01-22 15:26:00,64.0,37.9,29.50,South,180,10.4,10.4,38,0.00,CLR,,0.00,WeatherDisplay:10.37,2013-01-22 13:26:00,
2013-01-22 15:28:00,64.2,38.1,29.50,WSW,248,9.2,9.2,38,0.00,CLR,,0.00,WeatherDisplay:10.37,2013-01-22 13:28:00,
2013-01-22 15:30:00,64.2,38.1,29.50,SW,225,10.5,10.5,38,0.00,CLR,,0.00,WeatherDisplay:10.37,2013-01-22 13:30:00,
2013-01-22 15:31:00,63.9,37.7,29.53,SSW,202,10.4,10.4,38,0.00,CLR,,0.00,WeatherDisplay:10.37,2013-01-22 13:31:00,
2013-01-22 15:33:00,63.9,37.7,29.53,South,180,6.9,6.9,38,0.00,CLR,,0.00,WeatherDisplay:10.37,2013-01-22 13:33:00,
2013-01-22 15:35:00,64.2,38.7,29.53,South,180,8.1,8.1,39,0.00,CLR,,0.00,WeatherDisplay:10.37,2013-01-22 13:35:00,
2013-01-22 15:36:00,64.4,38.2,29.53,SE,135,4.6,4.6,38,0.00,CLR,,0.00,WeatherDisplay:10.37,2013-01-22 13:36:00,
2013-01-22 15:37:00,64.2,38.1,29.53,SSE,158,11.5,11.5,38,0.00,CLR,,0.00,WeatherDisplay:10.37,2013-01-22 13:37:00,
2013-01-22 15:38:00,64.0,37.9,29.53,SSE,158,19.6,19.6,38,0.00,CLR,,0.00,WeatherDisplay:10.37,2013-01-22 13:38:00,
2013-01-22 15:40:00,63.9,37.7,29.53,SSW,202,11.5,11.5,38,0.00,CLR,,0.00,WeatherDisplay:10.37,2013-01-22 13:40:00,
2013-01-22 15:41:00,63.9,37.7,29.53,SSW,202,8.1,8.1,38,0.00,CLR,,0.00,WeatherDisplay:10.37,2013-01-22 13:41:00,
2013-01-22 15:42:00,63.9,38.4,29.53,SSW,202,7.8,7.8,39,0.00,CLR,,0.00,WeatherDisplay:10.37,2013-01-22 13:42:00,
2013-01-22 15:44:00,64.0,38.6,29.53,SSW,202,8.1,8.1,39,0.00,CLR,,0.00,WeatherDisplay:10.37,2013-01-22 13:44:00,
2013-01-22 15:45:00,64.0,38.6,29.53,SSW,202,6.9,6.9,39,0.00,CLR,,0.00,WeatherDisplay:10.37,2013-01-22 13:45:00,
2013-01-22 15:46:00,63.9,38.4,29.53,SSE,158,10.7,10.7,39,0.00,CLR,,0.00,WeatherDisplay:10.37,2013-01-22 13:46:00,
2013-01-22 15:47:00,63.9,39.1,29.50,South,180,10.4,10.4,40,0.00,CLR,,0.00,WeatherDisplay:10.37,2013-01-22 13:47:00,
2013-01-22 15:49:00,63.7,38.9,29.50,SE,135,9.2,9.2,40,0.00,CLR,,0.00,WeatherDisplay:10.37,2013-01-22 13:49:00,
2013-01-22 15:50:00,63.7,38.9,29.50,SSE,158,11.5,11.5,40,0.00,CLR,,0.00,WeatherDisplay:10.37,2013-01-22 13:50:00,
2013-01-22 15:51:00,63.5,40.0,29.50,SSE,158,11.5,11.5,42,0.00,CLR,,0.00,WeatherDisplay:10.37,2013-01-22 13:51:00,
2013-01-22 15:52:00,63.7,40.1,29.50,SSE,158,5.8,5.8,42,0.00,CLR,,0.00,WeatherDisplay:10.37,2013-01-22 13:52:00,
2013-01-22 15:54:00,63.7,40.1,29.50,South,180,5.8,6.2,42,0.00,CLR,,0.00,WeatherDisplay:10.37,2013-01-22 13:54:00,
2013-01-22 15:55:00,63.7,40.8,29.50,SSW,202,6.0,6.0,43,0.00,CLR,,0.00,WeatherDisplay:10.37,2013-01-22 13:55:00,
2013-01-22 15:57:00,63.5,41.2,29.50,South,180,9.2,9.2,44,0.00,CLR,,0.00,WeatherDisplay:10.37,2013-01-22 13:57:00,
2013-01-22 15:58:00,63.5,41.2,29.50,SW,225,9.2,9.2,44,0.00,CLR,,0.00,WeatherDisplay:10.37,2013-01-22 13:58:00,
2013-01-22 15:59:00,63.5,41.2,29.50,SSW,202,5.8,5.8,44,0.00,CLR,,0.00,WeatherDisplay:10.37,2013-01-22 13:59:00,
2013-01-22 16:01:00,63.3,41.0,29.50,SSE,158,10.4,10.4,44,0.00,CLR,,0.00,WeatherDisplay:10.37,2013-01-22 14:01:00,
2013-01-22 16:02:00,63.1,41.4,29.50,SSE,158,11.5,11.5,45,0.00,CLR,,0.00,WeatherDisplay:10.37,2013-01-22 14:02:00,
2013-01-22 16:03:00,63.3,41.6,29.50,SSE,158,8.1,8.1,45,0.00,CLR,,0.00,WeatherDisplay:10.37,2013-01-22 14:03:00,
2013-01-22 16:04:00,63.3,41.6,29.50,SSW,202,12.3,12.3,45,0.00,CLR,,0.00,WeatherDisplay:10.37,2013-01-22 14:04:00,
2013-01-22 16:06:00,63.1,41.4,29.50,SSE,158,8.1,8.1,45,0.00,CLR,,0.00,WeatherDisplay:10.37,2013-01-22 14:06:00,
2013-01-22 16:07:00,63.3,41.6,29.50,SE,135,5.8,5.8,45,0.00,CLR,,0.00,WeatherDisplay:10.37,2013-01-22 14:07:00,
2013-01-22 16:08:00,63.3,41.6,29.50,SE,135,4.9,5.6,45,0.00,CLR,,0.00,WeatherDisplay:10.37,2013-01-22 14:08:00,
2013-01-22 16:09:00,63.3,41.6,29.50,SSE,158,6.9,6.9,45,0.00,CLR,,0.00,WeatherDisplay:10.37,2013-01-22 14:09:00,
2013-01-22 16:11:00,63.3,41.6,29.50,SSW,202,9.2,9.2,45,0.00,CLR,,0.00,WeatherDisplay:10.37,2013-01-22 14:11:00,
2013-01-22 16:13:00,63.3,41.6,29.50,SSW,202,9.2,9.2,45,0.00,CLR,,0.00,WeatherDisplay:10.37,2013-01-22 14:13:00,
2013-01-22 16:14:00,63.5,41.8,29.50,SSW,202,6.9,6.9,45,0.00,CLR,,0.00,WeatherDisplay:10.37,2013-01-22 14:14:00,
2013-01-22 16:16:00,63.5,41.8,29.50,South,180,7.1,7.1,45,0.00,CLR,,0.00,WeatherDisplay:10.37,2013-01-22 14:16:00,
2013-01-22 16:18:00,63.5,41.8,29.50,SSW,202,6.9,6.9,45,0.00,CLR,,0.00,WeatherDisplay:10.37,2013-01-22 14:18:00,
2013-01-22 16:19:00,63.3,41.6,29.50,SSW,202,9.2,9.2,45,0.00,CLR,,0.00,WeatherDisplay:10.37,2013-01-22 14:19:00,
2013-01-22 16:21:00,63.7,41.9,29.50,South,180,6.0,6.0,45,0.00,CLR,,0.00,WeatherDisplay:10.37,2013-01-22 14:21:00,
2013-01-22 16:23:00,63.7,41.9,29.50,SSE,158,8.1,8.1,45,0.00,CLR,,0.00,WeatherDisplay:10.37,2013-01-22 14:23:00,
2013-01-22 16:25:00,63.5,41.8,29.50,South,180,9.2,9.2,45,0.00,CLR,,0.00,WeatherDisplay:10.37,2013-01-22 14:25:00,
2013-01-22 16:26:00,63.5,41.8,29.50,SSE,158,12.7,12.7,45,0.00,CLR,,0.00,WeatherDisplay:10.37,2013-01-22 14:26:00,
2013-01-22 16:28:00,63.7,41.9,29.50,SSW,202,7.4,7.4,45,0.00,CLR,,0.00,WeatherDisplay:10.37,2013-01-22 14:28:00,
2013-01-22 16:30:00,64.2,42.4,29.50,SSE,158,5.4,5.4,45,0.00,CLR,,0.00,WeatherDisplay:10.37,2013-01-22 14:30:00,
2013-01-22 16:31:00,64.2,42.4,29.50,SSE,158,5.8,5.8,45,0.00,CLR,,0.00,WeatherDisplay:10.37,2013-01-22 14:31:00,
2013-01-22 16:33:00,64.6,42.2,29.53,SE,135,4.6,4.6,44,0.00,CLR,,0.00,WeatherDisplay:10.37,2013-01-22 14:33:00,
2013-01-22 16:35:00,64.2,42.4,29.53,SSE,158,9.2,9.2,45,0.00,CLR,,0.00,WeatherDisplay:10.37,2013-01-22 14:35:00,
2013-01-22 16:37:00,64.4,42.0,29.53,South,180,5.8,5.8,44,0.00,CLR,,0.00,WeatherDisplay:10.37,2013-01-22 14:37:00,
2013-01-22 16:38:00,64.2,41.8,29.53,South,180,5.8,5.8,44,0.00,CLR,,0.00,WeatherDisplay:10.37,2013-01-22 14:38:00,
2013-01-22 16:40:00,64.4,42.0,29.53,SSW,202,3.5,3.6,44,0.00,CLR,,0.00,WeatherDisplay:10.37,2013-01-22 14:40:00,
2013-01-22 16:42:00,64.2,41.8,29.53,South,180,6.0,6.0,44,0.00,CLR,,0.00,WeatherDisplay:10.37,2013-01-22 14:42:00,
2013-01-22 16:43:00,64.4,42.0,29.53,SSE,158,5.8,5.8,44,0.00,CLR,,0.00,WeatherDisplay:10.37,2013-01-22 14:43:00,
2013-01-22 16:46:00,64.4,42.0,29.53,SSE,158,9.2,9.2,44,0.00,CLR,,0.00,WeatherDisplay:10.37,2013-01-22 14:46:00,
2013-01-22 16:47:00,64.2,42.4,29.50,SSE,158,9.2,9.2,45,0.00,CLR,,0.00,WeatherDisplay:10.37,2013-01-22 14:47:00,
2013-01-22 16:48:00,64.2,42.4,29.50,SSE,158,10.4,10.4,45,0.00,CLR,,0.00,WeatherDisplay:10.37,2013-01-22 14:48:00,
2013-01-22 16:51:00,63.9,42.1,29.50,SSW,202,8.1,8.1,45,0.00,CLR,,0.00,WeatherDisplay:10.37,2013-01-22 14:51:00,
2013-01-22 16:52:00,64.0,42.3,29.50,SSE,158,3.5,3.5,45,0.00,CLR,,0.00,WeatherDisplay:10.37,2013-01-22 14:52:00,
2013-01-22 16:53:00,64.2,42.4,29.50,South,180,3.5,3.5,45,0.00,CLR,,0.00,WeatherDisplay:10.37,2013-01-22 14:53:00,
2013-01-22 16:54:00,64.2,42.4,29.50,SSE,158,2.6,2.6,45,0.00,CLR,,0.00,WeatherDisplay:10.37,2013-01-22 14:54:00,
2013-01-22 16:56:00,63.5,41.8,29.50,South,180,5.8,5.8,45,0.00,CLR,,0.00,WeatherDisplay:10.37,2013-01-22 14:56:00,
2013-01-22 16:58:00,63.0,41.8,29.50,South,180,3.5,3.5,46,0.00,CLR,,0.00,WeatherDisplay:10.37,2013-01-22 14:58:00,
2013-01-22 16:59:00,62.8,41.7,29.50,SSW,202,3.5,3.5,46,0.00,CLR,,0.00,WeatherDisplay:10.37,2013-01-22 14:59:00,
2013-01-22 17:02:00,62.2,41.7,29.53,SSE,158,3.6,3.6,47,0.00,CLR,,0.00,WeatherDisplay:10.37,2013-01-22 15:02:00,
2013-01-22 17:03:00,62.1,41.6,29.53,SSE,158,4.6,4.6,47,0.00,CLR,,0.00,WeatherDisplay:10.37,2013-01-22 15:03:00,
2013-01-22 17:04:00,62.1,41.6,29.53,SSE,158,3.5,3.5,47,0.00,CLR,,0.00,WeatherDisplay:10.37,2013-01-22 15:04:00,
2013-01-22 17:07:00,61.7,41.3,29.53,South,180,5.8,5.8,47,0.00,CLR,,0.00,WeatherDisplay:10.37,2013-01-22 15:07:00,
2013-01-22 17:08:00,61.7,41.3,29.53,SSE,158,4.6,4.6,47,0.00,CLR,,0.00,WeatherDisplay:10.37,2013-01-22 15:08:00,
2013-01-22 17:09:00,61.7,41.3,29.53,SSE,158,4.9,4.9,47,0.00,CLR,,0.00,WeatherDisplay:10.37,2013-01-22 15:09:00,
2013-01-22 17:12:00,61.5,41.6,29.53,SSW,202,3.5,3.5,48,0.00,CLR,,0.00,WeatherDisplay:10.37,2013-01-22 15:12:00,
2013-01-22 17:13:00,61.5,41.6,29.53,SSW,202,3.5,3.5,48,0.00,CLR,,0.00,WeatherDisplay:10.37,2013-01-22 15:13:00,
2013-01-22 17:14:00,61.5,41.6,29.53,South,180,3.5,3.5,48,0.00,CLR,,0.00,WeatherDisplay:10.37,2013-01-22 15:14:00,
2013-01-22 17:17:00,61.3,42.5,29.53,SSW,202,6.9,6.9,50,0.00,CLR,,0.00,WeatherDisplay:10.37,2013-01-22 15:17:00,
2013-01-22 17:19:00,61.3,42.5,29.53,South,180,2.3,3.6,50,0.00,CLR,,0.00,WeatherDisplay:10.37,2013-01-22 15:19:00,
2013-01-22 17:23:00,61.2,42.9,29.53,SW,225,5.8,5.8,51,0.00,CLR,,0.00,WeatherDisplay:10.37,2013-01-22 15:23:00,
2013-01-22 17:24:00,61.0,43.2,29.53,SW,225,4.6,4.6,52,0.00,CLR,,0.00,WeatherDisplay:10.37,2013-01-22 15:24:00,
2013-01-22 17:28:00,60.8,43.1,29.53,SW,225,4.6,4.6,52,0.00,CLR,,0.00,WeatherDisplay:10.37,2013-01-22 15:28:00,
2013-01-22 17:29:00,60.8,43.1,29.53,SSW,202,2.3,2.3,52,0.00,CLR,,0.00,WeatherDisplay:10.37,2013-01-22 15:29:00,
2013-01-22 17:33:00,60.4,43.2,29.50,SW,225,4.6,4.6,53,0.00,CLR,,0.00,WeatherDisplay:10.37,2013-01-22 15:33:00,
2013-01-22 17:34:00,60.4,43.2,29.50,South,180,4.6,4.6,53,0.00,CLR,,0.00,WeatherDisplay:10.37,2013-01-22 15:34:00,
2013-01-22 17:35:00,60.4,43.2,29.50,SSW,202,4.6,4.6,53,0.00,CLR,,0.00,WeatherDisplay:10.37,2013-01-22 15:35:00,
2013-01-22 17:38:00,60.4,42.7,29.50,SSW,202,6.9,6.9,52,0.00,CLR,,0.00,WeatherDisplay:10.37,2013-01-22 15:38:00,
2013-01-22 17:39:00,60.4,42.7,29.50,SSW,202,4.6,4.6,52,0.00,CLR,,0.00,WeatherDisplay:10.37,2013-01-22 15:39:00,
2013-01-22 17:40:00,60.4,42.7,29.50,SSW,202,4.6,4.6,52,0.00,CLR,,0.00,WeatherDisplay:10.37,2013-01-22 15:40:00,
2013-01-22 17:43:00,60.3,43.1,29.50,SSW,202,3.5,3.5,53,0.00,CLR,,0.00,WeatherDisplay:10.37,2013-01-22 15:43:00,
2013-01-22 17:44:00,60.3,43.1,29.50,SSW,202,3.5,3.5,53,0.00,CLR,,0.00,WeatherDisplay:10.37,2013-01-22 15:44:00,
2013-01-22 17:45:00,60.2,43.5,29.50,SSW,204,2.0,5.0,54,0.00,CLR,,0.00,WeatherDisplay:10.37,2013-01-22 15:45:00,
2013-01-22 17:48:00,60.1,43.9,29.50,SSW,202,3.5,3.5,55,0.00,CLR,,0.00,WeatherDisplay:10.37,2013-01-22 15:48:00,
2013-01-22 17:49:00,59.9,43.2,29.50,SSE,158,2.9,2.9,54,0.00,CLR,,0.00,WeatherDisplay:10.37,2013-01-22 15:49:00,
2013-01-22 17:50:00,59.9,43.7,29.50,South,180,5.8,5.8,55,0.00,CLR,,0.00,WeatherDisplay:10.37,2013-01-22 15:50:00,
2013-01-22 17:53:00,59.9,44.2,29.50,SSW,202,4.6,4.6,56,0.00,CLR,,0.00,WeatherDisplay:10.37,2013-01-22 15:53:00,
2013-01-22 17:54:00,59.9,44.2,29.50,SSW,202,4.6,4.6,56,0.00,CLR,,0.00,WeatherDisplay:10.37,2013-01-22 15:54:00,
2013-01-22 17:55:00,59.7,44.0,29.50,South,180,3.5,3.5,56,0.00,CLR,,0.00,WeatherDisplay:10.37,2013-01-22 15:55:00,
2013-01-22 17:58:00,59.7,44.5,29.50,SSE,158,4.6,4.6,57,0.00,CLR,,0.00,WeatherDisplay:10.37,2013-01-22 15:58:00,
2013-01-22 17:59:00,59.7,44.5,29.50,SSW,202,3.5,3.5,57,0.00,CLR,,0.00,WeatherDisplay:10.37,2013-01-22 15:59:00,
2013-01-22 18:00:00,59.7,44.5,29.50,South,180,3.5,3.5,57,0.00,CLR,,0.00,WeatherDisplay:10.37,2013-01-22 16:00:00,
2013-01-22 18:03:00,59.5,44.7,29.53,SSE,158,3.5,3.5,58,0.00,CLR,,0.00,WeatherDisplay:10.37,2013-01-22 16:03:00,
2013-01-22 18:04:00,59.5,44.7,29.53,South,180,3.5,3.5,58,0.00,CLR,,0.00,WeatherDisplay:10.37,2013-01-22 16:04:00,
2013-01-22 18:05:00,59.5,44.7,29.53,South,180,3.5,3.5,58,0.00,CLR,,0.00,WeatherDisplay:10.37,2013-01-22 16:05:00,
2013-01-22 18:08:00,59.4,45.0,29.53,South,180,2.3,2.3,59,0.00,CLR,,0.00,WeatherDisplay:10.37,2013-01-22 16:08:00,
2013-01-22 18:09:00,59.4,45.0,29.53,South,180,3.6,3.6,59,0.00,CLR,,0.00,WeatherDisplay:10.37,2013-01-22 16:09:00,
2013-01-22 18:10:00,59.4,45.0,29.53,SSW,202,3.5,3.5,59,0.00,CLR,,0.00,WeatherDisplay:10.37,2013-01-22 16:10:00,
2013-01-22 18:11:00,59.4,45.5,29.53,SSE,158,3.8,3.8,60,0.00,CLR,,0.00,WeatherDisplay:10.37,2013-01-22 16:11:00,
2013-01-22 18:13:00,59.4,45.9,29.53,South,180,4.0,4.0,61,0.00,CLR,,0.00,WeatherDisplay:10.37,2013-01-22 16:13:00,
2013-01-22 18:14:00,59.4,46.3,29.53,SSE,158,4.6,4.6,62,0.00,CLR,,0.00,WeatherDisplay:10.37,2013-01-22 16:14:00,
2013-01-22 18:16:00,59.4,46.8,29.53,SSW,202,4.6,4.6,63,0.00,CLR,,0.00,WeatherDisplay:10.37,2013-01-22 16:16:00,
2013-01-22 18:17:00,59.2,46.6,29.53,SSE,158,4.6,4.6,63,0.00,CLR,,0.00,WeatherDisplay:10.37,2013-01-22 16:17:00,
2013-01-22 18:19:00,59.2,46.6,29.53,SSW,202,5.9,5.9,63,0.00,CLR,,0.00,WeatherDisplay:10.37,2013-01-22 16:19:00,
2013-01-22 18:22:00,59.2,49.0,29.53,SSW,202,8.7,8.7,69,0.00,CLR,,0.00,WeatherDisplay:10.37,2013-01-22 16:22:00,
2013-01-22 18:23:00,59.2,49.0,29.53,SSW,202,5.8,5.8,69,0.00,CLR,,0.00,WeatherDisplay:10.37,2013-01-22 16:23:00,
2013-01-22 18:24:00,59.2,49.0,29.53,SSW,202,4.6,4.6,69,0.00,CLR,,0.00,WeatherDisplay:10.37,2013-01-22 16:24:00,
2013-01-22 18:25:00,59.2,49.4,29.53,SSW,202,5.8,5.8,70,0.00,CLR,,0.00,WeatherDisplay:10.37,2013-01-22 16:25:00,
2013-01-22 18:27:00,59.2,49.8,29.53,SSE,158,8.5,8.5,71,0.00,CLR,,0.00,WeatherDisplay:10.37,2013-01-22 16:27:00,
2013-01-22 18:28:00,59.2,49.8,29.53,South,180,8.1,8.1,71,0.00,CLR,,0.00,WeatherDisplay:10.37,2013-01-22 16:28:00,
2013-01-22 18:29:00,59.2,50.2,29.53,SSE,158,8.5,8.5,72,0.00,CLR,,0.00,WeatherDisplay:10.37,2013-01-22 16:29:00,
2013-01-22 18:30:00,59.2,50.5,29.53,South,180,8.1,8.1,73,0.00,CLR,,0.00,WeatherDisplay:10.37,2013-01-22 16:30:00,
2013-01-22 18:32:00,59.2,50.2,29.53,SSW,202,5.8,5.8,72,0.00,CLR,,0.00,WeatherDisplay:10.37,2013-01-22 16:32:00,
2013-01-22 18:33:00,59.2,50.2,29.53,SSW,202,8.5,8.5,72,0.00,CLR,,0.00,WeatherDisplay:10.37,2013-01-22 16:33:00,
2013-01-22 18:34:00,59.0,50.4,29.53,SSE,158,8.1,8.1,73,0.00,CLR,,0.00,WeatherDisplay:10.37,2013-01-22 16:34:00,
2013-01-22 18:35:00,59.0,50.0,29.53,SSW,202,6.9,6.9,72,0.00,CLR,,0.00,WeatherDisplay:10.37,2013-01-22 16:35:00,
2013-01-22 18:38:00,59.0,49.6,29.53,South,180,5.8,5.8,71,0.00,CLR,,0.00,WeatherDisplay:10.37,2013-01-22 16:38:00,
2013-01-22 18:39:00,59.0,49.6,29.53,South,180,6.9,6.9,71,0.00,CLR,,0.00,WeatherDisplay:10.37,2013-01-22 16:39:00,
2013-01-22 18:40:00,59.0,49.6,29.53,SSE,158,6.9,6.9,71,0.00,CLR,,0.00,WeatherDisplay:10.37,2013-01-22 16:40:00,
2013-01-22 18:43:00,59.0,49.6,29.53,South,180,6.9,6.9,71,0.00,CLR,,0.00,WeatherDisplay:10.37,2013-01-22 16:43:00,
2013-01-22 18:44:00,59.0,50.0,29.53,SSW,202,6.9,6.9,72,0.00,CLR,,0.00,WeatherDisplay:10.37,2013-01-22 16:44:00,
2013-01-22 18:45:00,59.0,50.0,29.53,SSE,158,6.9,6.9,72,0.00,CLR,,0.00,WeatherDisplay:10.37,2013-01-22 16:45:00,
2013-01-22 18:48:00,59.0,50.4,29.56,SSE,158,6.9,6.9,73,0.00,CLR,,0.00,WeatherDisplay:10.37,2013-01-22 16:48:00,
2013-01-22 18:49:00,59.0,50.7,29.56,SSW,202,10.4,10.4,74,0.00,CLR,,0.00,WeatherDisplay:10.37,2013-01-22 16:49:00,
2013-01-22 18:50:00,59.0,50.7,29.56,South,180,9.2,9.2,74,0.00,CLR,,0.00,WeatherDisplay:10.37,2013-01-22 16:50:00,
2013-01-22 18:53:00,59.2,50.9,29.56,South,180,5.8,5.8,74,0.00,CLR,,0.00,WeatherDisplay:10.37,2013-01-22 16:53:00,
2013-01-22 18:54:00,59.2,50.5,29.56,SSW,202,5.8,5.8,73,0.00,CLR,,0.00,WeatherDisplay:10.37,2013-01-22 16:54:00,
2013-01-22 18:55:00,59.2,50.5,29.56,South,179,5.0,12.0,73,0.00,CLR,,0.00,WeatherDisplay:10.37,2013-01-22 16:55:00,
2013-01-22 18:58:00,59.0,50.4,29.56,SSW,202,14.0,14.0,73,0.00,CLR,,0.00,WeatherDisplay:10.37,2013-01-22 16:58:00,
2013-01-22 18:59:00,59.0,50.4,29.56,SSW,202,13.8,13.8,73,0.00,CLR,,0.00,WeatherDisplay:10.37,2013-01-22 16:59:00,
2013-01-22 19:00:00,59.2,50.5,29.56,SE,135,13.8,13.8,73,0.00,CLR,,0.00,WeatherDisplay:10.37,2013-01-22 17:00:00,
2013-01-22 19:03:00,59.2,50.5,29.56,SW,225,8.1,8.1,73,0.00,CLR,,0.00,WeatherDisplay:10.37,2013-01-22 17:03:00,
2013-01-22 19:04:00,59.2,50.5,29.56,SSE,158,8.7,8.7,73,0.00,CLR,,0.00,WeatherDisplay:10.37,2013-01-22 17:04:00,
2013-01-22 19:05:00,59.2,50.5,29.56,South,182,5.0,9.0,73,0.00,CLR,,0.00,WeatherDisplay:10.37,2013-01-22 17:05:00,
2013-01-22 19:09:00,59.2,50.5,29.56,SSE,158,8.5,8.5,73,0.00,CLR,,0.00,WeatherDisplay:10.37,2013-01-22 17:09:00,
2013-01-22 19:10:00,59.2,50.5,29.56,SSW,202,8.1,8.1,73,0.00,CLR,,0.00,WeatherDisplay:10.37,2013-01-22 17:10:00,
2013-01-22 19:11:00,59.4,51.1,29.56,SSE,158,11.5,11.5,74,0.00,CLR,,0.00,WeatherDisplay:10.37,2013-01-22 17:11:00,
2013-01-22 19:14:00,59.4,51.4,29.56,SSE,158,9.2,9.2,75,0.00,CLR,,0.00,WeatherDisplay:10.37,2013-01-22 17:14:00,
2013-01-22 19:15:00,59.4,51.4,29.56,South,176,6.0,13.0,75,0.00,CLR,,0.00,WeatherDisplay:10.37,2013-01-22 17:15:00,
2013-01-22 19:16:00,59.4,51.4,29.56,South,180,6.9,6.9,75,0.00,CLR,,0.00,WeatherDisplay:10.37,2013-01-22 17:16:00,
2013-01-22 19:19:00,59.4,51.4,29.56,SSE,158,8.1,8.1,75,0.00,CLR,,0.00,WeatherDisplay:10.37,2013-01-22 17:19:00,
2013-01-22 19:20:00,59.4,51.4,29.56,SSW,202,8.1,8.1,75,0.00,CLR,,0.00,WeatherDisplay:10.37,2013-01-22 17:20:00,
2013-01-22 19:21:00,59.4,51.4,29.56,SSW,202,8.1,8.1,75,0.00,CLR,,0.00,WeatherDisplay:10.37,2013-01-22 17:21:00,
2013-01-22 19:24:00,59.4,51.1,29.56,SE,135,10.4,10.4,74,0.00,CLR,,0.00,WeatherDisplay:10.37,2013-01-22 17:24:00,
2013-01-22 19:25:00,59.4,51.1,29.56,SSE,158,6.9,6.9,74,0.00,CLR,,0.00,WeatherDisplay:10.37,2013-01-22 17:25:00,
2013-01-22 19:26:00,59.4,51.1,29.56,SSW,202,12.7,12.7,74,0.00,CLR,,0.00,WeatherDisplay:10.37,2013-01-22 17:26:00,
2013-01-22 19:29:00,59.2,50.9,29.56,South,180,5.8,5.8,74,0.00,CLR,,0.00,WeatherDisplay:10.37,2013-01-22 17:29:00,
2013-01-22 19:30:00,59.2,50.9,29.56,South,169,3.0,13.0,74,0.00,CLR,,0.00,WeatherDisplay:10.37,2013-01-22 17:30:00,
2013-01-22 19:31:00,59.2,50.5,29.56,South,180,10.4,10.4,73,0.00,CLR,,0.00,WeatherDisplay:10.37,2013-01-22 17:31:00,
2013-01-22 19:35:00,59.2,50.2,29.56,SSW,202,5.8,5.8,72,0.00,CLR,,0.00,WeatherDisplay:10.37,2013-01-22 17:35:00,
2013-01-22 19:36:00,59.2,50.5,29.56,SSE,158,6.9,6.9,73,0.00,CLR,,0.00,WeatherDisplay:10.37,2013-01-22 17:36:00,
2013-01-22 19:40:00,59.2,50.5,29.56,SSE,158,12.7,12.7,73,0.00,CLR,,0.00,WeatherDisplay:10.37,2013-01-22 17:40:00,
2013-01-22 19:41:00,59.2,50.9,29.56,SSW,202,12.7,12.7,74,0.00,CLR,,0.00,WeatherDisplay:10.37,2013-01-22 17:41:00,
2013-01-22 19:42:00,59.0,51.1,29.56,West,270,9.4,9.4,75,0.00,CLR,,0.00,WeatherDisplay:10.37,2013-01-22 17:42:00,
2013-01-22 19:45:00,59.0,51.4,29.56,SSE,158,10.4,10.4,76,0.00,CLR,,0.00,WeatherDisplay:10.37,2013-01-22 17:45:00,
2013-01-22 19:46:00,59.0,51.4,29.53,SSW,202,9.2,9.2,76,0.00,CLR,,0.00,WeatherDisplay:10.37,2013-01-22 17:46:00,
2013-01-22 19:47:00,59.0,51.4,29.53,SSW,202,8.1,8.1,76,0.00,CLR,,0.00,WeatherDisplay:10.37,2013-01-22 17:47:00,
2013-01-22 19:50:00,58.8,51.6,29.53,SSE,158,10.2,10.2,77,0.00,CLR,,0.00,WeatherDisplay:10.37,2013-01-22 17:50:00,
2013-01-22 19:52:00,58.8,51.6,29.53,SSE,158,10.4,10.4,77,0.00,CLR,,0.00,WeatherDisplay:10.37,2013-01-22 17:52:00,
2013-01-22 19:53:00,58.8,51.6,29.53,SSE,158,10.4,10.4,77,0.00,CLR,,0.00,WeatherDisplay:10.37,2013-01-22 17:53:00,
2013-01-22 19:55:00,58.8,52.0,29.53,SSW,202,8.1,8.1,78,0.00,CLR,,0.00,WeatherDisplay:10.37,2013-01-22 17:55:00,
2013-01-22 19:56:00,58.8,52.0,29.53,SSW,202,8.1,8.1,78,0.00,CLR,,0.00,WeatherDisplay:10.37,2013-01-22 17:56:00,
2013-01-22 19:57:00,58.8,52.0,29.53,South,180,4.7,4.7,78,0.00,CLR,,0.00,WeatherDisplay:10.37,2013-01-22 17:57:00,
2013-01-22 19:58:00,58.8,52.0,29.53,SSE,158,6.9,6.9,78,0.00,CLR,,0.00,WeatherDisplay:10.37,2013-01-22 17:58:00,
2013-01-22 20:01:00,58.6,51.8,29.53,SSW,202,6.2,6.2,78,0.00,CLR,,0.00,WeatherDisplay:10.37,2013-01-22 18:01:00,
2013-01-22 20:03:00,58.6,51.4,29.56,SSW,202,12.7,12.7,77,0.00,CLR,,0.00,WeatherDisplay:10.37,2013-01-22 18:03:00,
2013-01-22 20:06:00,58.6,51.1,29.56,South,180,4.6,4.6,76,0.00,CLR,,0.00,WeatherDisplay:10.37,2013-01-22 18:06:00,
2013-01-22 20:07:00,58.6,51.1,29.56,SSW,202,6.9,6.9,76,0.00,CLR,,0.00,WeatherDisplay:10.37,2013-01-22 18:07:00,
2013-01-22 20:08:00,58.6,51.1,29.56,South,180,6.9,6.9,76,0.00,CLR,,0.00,WeatherDisplay:10.37,2013-01-22 18:08:00,
2013-01-22 20:11:00,58.8,50.2,29.56,SSE,158,9.2,9.2,73,0.00,CLR,,0.00,WeatherDisplay:10.37,2013-01-22 18:11:00,
2013-01-22 20:12:00,58.8,50.2,29.56,SSW,202,6.2,6.2,73,0.00,CLR,,0.00,WeatherDisplay:10.37,2013-01-22 18:12:00,
2013-01-22 20:13:00,58.8,50.2,29.56,SSW,202,5.8,5.8,73,0.00,CLR,,0.00,WeatherDisplay:10.37,2013-01-22 18:13:00,
2013-01-22 20:17:00,58.6,50.4,29.56,SSW,202,5.8,5.8,74,0.00,CLR,,0.00,WeatherDisplay:10.37,2013-01-22 18:17:00,
2013-01-22 20:18:00,58.6,50.0,29.56,SSW,202,3.5,3.5,73,0.00,CLR,,0.00,WeatherDisplay:10.37,2013-01-22 18:18:00,
2013-01-22 20:22:00,58.6,50.0,29.56,SSW,202,4.6,4.6,73,0.00,CLR,,0.00,WeatherDisplay:10.37,2013-01-22 18:22:00,
2013-01-22 20:23:00,58.6,50.0,29.56,SSW,202,5.8,5.8,73,0.00,CLR,,0.00,WeatherDisplay:10.37,2013-01-22 18:23:00,
2013-01-22 20:28:00,58.6,50.4,29.56,South,180,9.2,9.2,74,0.00,CLR,,0.00,WeatherDisplay:10.37,2013-01-22 18:28:00,
2013-01-22 20:29:00,58.6,50.7,29.56,SSW,202,5.8,5.8,75,0.00,CLR,,0.00,WeatherDisplay:10.37,2013-01-22 18:29:00,
2013-01-22 20:33:00,58.6,51.1,29.53,SSW,202,5.8,5.8,76,0.00,CLR,,0.00,WeatherDisplay:10.37,2013-01-22 18:33:00,
2013-01-22 20:34:00,58.5,50.9,29.53,SSE,158,5.8,5.8,76,0.00,CLR,,0.00,WeatherDisplay:10.37,2013-01-22 18:34:00,
2013-01-22 20:38:00,58.5,51.6,29.53,SSW,202,5.8,5.8,78,0.00,CLR,,0.00,WeatherDisplay:10.37,2013-01-22 18:38:00,
2013-01-22 20:39:00,58.5,52.0,29.53,SSW,202,5.8,5.8,79,0.00,CLR,,0.00,WeatherDisplay:10.37,2013-01-22 18:39:00,
2013-01-22 20:43:00,58.3,51.8,29.53,South,180,5.8,5.8,79,0.00,CLR,,0.00,WeatherDisplay:10.37,2013-01-22 18:43:00,
2013-01-22 20:44:00,58.3,51.8,29.53,SSW,202,8.1,8.1,79,0.00,CLR,,0.00,WeatherDisplay:10.37,2013-01-22 18:44:00,
2013-01-22 20:48:00,58.3,51.8,29.53,SSW,202,4.3,4.3,79,0.00,CLR,,0.00,WeatherDisplay:10.37,2013-01-22 18:48:00,
2013-01-22 20:49:00,58.3,51.8,29.53,SSW,202,4.3,4.3,79,0.00,CLR,,0.00,WeatherDisplay:10.37,2013-01-22 18:49:00,
2013-01-22 20:53:00,58.1,51.3,29.53,South,180,4.6,4.6,78,0.00,CLR,,0.00,WeatherDisplay:10.37,2013-01-22 18:53:00,
2013-01-22 20:54:00,58.1,51.3,29.53,South,180,4.6,4.6,78,0.00,CLR,,0.00,WeatherDisplay:10.37,2013-01-22 18:54:00,
2013-01-22 20:58:00,58.3,51.8,29.53,SSW,202,4.7,4.7,79,0.00,CLR,,0.00,WeatherDisplay:10.37,2013-01-22 18:58:00,
2013-01-22 20:59:00,58.3,51.8,29.53,SSW,202,6.9,6.9,79,0.00,CLR,,0.00,WeatherDisplay:10.37,2013-01-22 18:59:00,
2013-01-22 21:04:00,58.3,52.5,29.56,SSW,202,8.1,8.1,81,0.00,CLR,,0.00,WeatherDisplay:10.37,2013-01-22 19:04:00,
2013-01-22 21:09:00,58.1,52.3,29.56,SSW,202,7.4,7.4,81,0.00,CLR,,0.00,WeatherDisplay:10.37,2013-01-22 19:09:00,
2013-01-22 21:10:00,58.1,52.3,29.56,South,180,6.9,6.9,81,0.00,CLR,,0.00,WeatherDisplay:10.37,2013-01-22 19:10:00,
2013-01-22 21:14:00,58.1,52.3,29.56,SW,225,4.6,4.6,81,0.00,CLR,,0.00,WeatherDisplay:10.37,2013-01-22 19:14:00,
2013-01-22 21:15:00,58.1,52.0,29.56,SW,225,4.6,4.6,80,0.00,CLR,,0.00,WeatherDisplay:10.37,2013-01-22 19:15:00,
2013-01-22 21:19:00,58.1,51.6,29.53,South,180,5.9,5.9,79,0.00,CLR,,0.00,WeatherDisplay:10.37,2013-01-22 19:19:00,
2013-01-22 21:20:00,58.1,51.6,29.53,SSW,202,5.8,5.8,79,0.00,CLR,,0.00,WeatherDisplay:10.37,2013-01-22 19:20:00,
2013-01-22 21:24:00,57.9,51.1,29.53,South,180,4.6,4.6,78,0.00,CLR,,0.00,WeatherDisplay:10.37,2013-01-22 19:24:00,
2013-01-22 21:25:00,57.9,51.1,29.53,SSW,194,3.0,5.0,78,0.00,CLR,,0.00,WeatherDisplay:10.37,2013-01-22 19:25:00,
2013-01-22 21:29:00,57.9,51.1,29.53,South,180,2.3,2.3,78,0.00,CLR,,0.00,WeatherDisplay:10.37,2013-01-22 19:29:00,
2013-01-22 21:30:00,57.9,51.1,29.53,South,190,2.0,8.0,78,0.00,CLR,,0.00,WeatherDisplay:10.37,2013-01-22 19:30:00,
2013-01-22 21:34:00,57.9,51.4,29.53,SSE,158,3.5,3.5,79,0.00,CLR,,0.00,WeatherDisplay:10.37,2013-01-22 19:34:00,
2013-01-22 21:35:00,57.9,51.4,29.53,South,172,1.0,5.0,79,0.00,CLR,,0.00,WeatherDisplay:10.37,2013-01-22 19:35:00,
2013-01-22 21:40:00,57.6,50.8,29.53,SSE,158,3.5,3.5,78,0.00,CLR,,0.00,WeatherDisplay:10.37,2013-01-22 19:40:00,
2013-01-22 21:41:00,57.6,50.8,29.53,SSE,158,2.3,2.3,78,0.00,CLR,,0.00,WeatherDisplay:10.37,2013-01-22 19:41:00,
2013-01-22 21:45:00,57.6,51.1,29.53,ENE,68,3.5,3.5,79,0.00,CLR,,0.00,WeatherDisplay:10.37,2013-01-22 19:45:00,
2013-01-22 21:46:00,57.6,51.1,29.53,ENE,68,3.5,3.5,79,0.00,CLR,,0.00,WeatherDisplay:10.37,2013-01-22 19:46:00,
2013-01-22 21:50:00,57.4,50.9,29.56,ENE,68,1.4,1.4,79,0.00,CLR,,0.00,WeatherDisplay:10.37,2013-01-22 19:50:00,
2013-01-22 21:51:00,57.4,50.9,29.56,ENE,68,2.3,2.3,79,0.00,CLR,,0.00,WeatherDisplay:10.37,2013-01-22 19:51:00,
2013-01-22 21:52:00,57.4,50.9,29.56,ENE,68,1.1,1.6,79,0.00,CLR,,0.00,WeatherDisplay:10.37,2013-01-22 19:52:00,
2013-01-22 21:55:00,57.4,50.9,29.56,NE,45,2.6,2.6,79,0.00,CLR,,0.00,WeatherDisplay:10.37,2013-01-22 19:55:00,
2013-01-22 21:57:00,57.4,50.9,29.56,NNE,22,2.3,2.4,79,0.00,CLR,,0.00,WeatherDisplay:10.37,2013-01-22 19:57:00,
2013-01-22 22:00:00,57.6,51.4,29.56,West,270,2.9,2.9,80,0.00,CLR,,0.00,WeatherDisplay:10.37,2013-01-22 20:00:00,
2013-01-22 22:02:00,57.4,51.3,29.56,West,270,2.3,2.3,80,0.00,CLR,,0.00,WeatherDisplay:10.37,2013-01-22 20:02:00,
2013-01-22 22:05:00,57.4,50.9,29.56,North,0,2.4,2.4,79,0.00,CLR,,0.00,WeatherDisplay:10.37,2013-01-22 20:05:00,
2013-01-22 22:07:00,57.4,50.9,29.56,NNE,22,2.4,2.4,79,0.00,CLR,,0.00,WeatherDisplay:10.37,2013-01-22 20:07:00,
2013-01-22 22:10:00,57.4,51.3,29.56,South,180,4.6,4.6,80,0.00,CLR,,0.00,WeatherDisplay:10.37,2013-01-22 20:10:00,
2013-01-22 22:12:00,57.6,51.4,29.56,SSW,202,2.3,2.3,80,0.00,CLR,,0.00,WeatherDisplay:10.37,2013-01-22 20:12:00,
2013-01-22 22:15:00,57.7,51.9,29.56,SSE,158,4.3,4.3,81,0.00,CLR,,0.00,WeatherDisplay:10.37,2013-01-22 20:15:00,
2013-01-22 22:17:00,57.9,52.5,29.56,SSE,158,4.7,4.7,82,0.00,CLR,,0.00,WeatherDisplay:10.37,2013-01-22 20:17:00,
2013-01-22 22:18:00,57.9,52.5,29.56,SSE,158,4.6,4.6,82,0.00,CLR,,0.00,WeatherDisplay:10.37,2013-01-22 20:18:00,
2013-01-22 22:20:00,57.9,52.1,29.56,South,180,3.5,3.5,81,0.00,CLR,,0.00,WeatherDisplay:10.37,2013-01-22 20:20:00,
2013-01-22 22:21:00,57.9,52.1,29.56,South,180,3.5,3.5,81,0.00,CLR,,0.00,WeatherDisplay:10.37,2013-01-22 20:21:00,
2013-01-22 22:22:00,58.1,52.0,29.56,South,180,3.5,3.5,80,0.00,CLR,,0.00,WeatherDisplay:10.37,2013-01-22 20:22:00,
2013-01-22 22:23:00,58.1,51.3,29.56,SW,225,7.6,7.6,78,0.00,CLR,,0.00,WeatherDisplay:10.37,2013-01-22 20:23:00,
2013-01-22 22:25:00,58.3,50.7,29.56,South,180,3.5,3.5,76,0.00,CLR,,0.00,WeatherDisplay:10.37,2013-01-22 20:25:00,
2013-01-22 22:26:00,58.3,50.7,29.56,SSW,202,6.9,6.9,76,0.00,CLR,,0.00,WeatherDisplay:10.37,2013-01-22 20:26:00,
2013-01-22 22:28:00,58.5,50.6,29.56,SSW,202,6.9,6.9,75,0.00,CLR,,0.00,WeatherDisplay:10.37,2013-01-22 20:28:00,
2013-01-22 22:30:00,58.5,50.2,29.56,SSW,202,6.9,6.9,74,0.00,CLR,,0.00,WeatherDisplay:10.37,2013-01-22 20:30:00,
2013-01-22 22:33:00,58.5,50.2,29.56,SSW,202,3.5,3.5,74,0.00,CLR,,0.00,WeatherDisplay:10.37,2013-01-22 20:33:00,
2013-01-22 22:35:00,58.5,50.2,29.56,SSW,202,4.6,4.6,74,0.00,CLR,,0.00,WeatherDisplay:10.37,2013-01-22 20:35:00,
2013-01-22 22:38:00,58.5,50.2,29.56,SSW,202,2.3,2.3,74,0.00,CLR,,0.00,WeatherDisplay:10.37,2013-01-22 20:38:00,
2013-01-22 22:40:00,58.5,50.2,29.56,SSE,158,3.1,3.1,74,0.00,CLR,,0.00,WeatherDisplay:10.37,2013-01-22 20:40:00,
2013-01-22 22:43:00,58.5,49.8,29.56,SSW,202,3.5,3.5,73,0.00,CLR,,0.00,WeatherDisplay:10.37,2013-01-22 20:43:00,
2013-01-22 22:45:00,58.6,49.6,29.56,SSW,202,3.5,3.5,72,0.00,CLR,,0.00,WeatherDisplay:10.37,2013-01-22 20:45:00,
2013-01-22 22:48:00,58.6,49.3,29.56,SSW,202,4.6,4.6,71,0.00,CLR,,0.00,WeatherDisplay:10.37,2013-01-22 20:48:00,
2013-01-22 22:50:00,58.6,49.3,29.56,SSW,202,4.6,4.6,71,0.00,CLR,,0.00,WeatherDisplay:10.37,2013-01-22 20:50:00,
2013-01-22 22:53:00,58.6,48.9,29.56,SSW,202,4.3,4.3,70,0.00,CLR,,0.00,WeatherDisplay:10.37,2013-01-22 20:53:00,
2013-01-22 22:54:00,58.6,48.9,29.56,South,180,4.6,4.6,70,0.00,CLR,,0.00,WeatherDisplay:10.37,2013-01-22 20:54:00,
2013-01-22 22:55:00,58.6,48.9,29.56,SSW,202,4.6,4.6,70,0.00,CLR,,0.00,WeatherDisplay:10.37,2013-01-22 20:55:00,
2013-01-22 22:58:00,58.6,48.9,29.56,WSW,248,3.5,3.5,70,0.00,CLR,,0.00,WeatherDisplay:10.37,2013-01-22 20:58:00,
2013-01-22 22:59:00,58.6,48.9,29.56,WSW,248,4.0,4.0,70,0.00,CLR,,0.00,WeatherDisplay:10.37,2013-01-22 20:59:00,
2013-01-22 23:00:00,58.6,48.9,29.56,WSW,248,2.3,2.4,70,0.00,CLR,,0.00,WeatherDisplay:10.37,2013-01-22 21:00:00,
2013-01-22 23:01:00,58.6,48.9,29.56,WSW,248,5.8,5.8,70,0.00,CLR,,0.00,WeatherDisplay:10.37,2013-01-22 21:01:00,
2013-01-22 23:03:00,58.6,48.9,29.56,SSW,202,4.6,4.6,70,0.00,CLR,,0.00,WeatherDisplay:10.37,2013-01-22 21:03:00,
2013-01-22 23:04:00,58.6,48.9,29.56,South,180,4.6,4.6,70,0.00,CLR,,0.00,WeatherDisplay:10.37,2013-01-22 21:04:00,
2013-01-22 23:05:00,58.6,48.9,29.56,SW,222,3.0,5.0,70,0.00,CLR,,0.00,WeatherDisplay:10.37,2013-01-22 21:05:00,
2013-01-22 23:06:00,58.6,46.5,29.56,SSW,202,4.6,4.6,64,0.00,CLR,,0.00,WeatherDisplay:10.37,2013-01-22 21:06:00,
2013-01-22 23:08:00,58.6,45.2,29.56,SSW,202,8.1,8.1,61,0.00,CLR,,0.00,WeatherDisplay:10.37,2013-01-22 21:08:00,
2013-01-22 23:09:00,58.6,44.8,29.56,SSW,202,3.5,3.5,60,0.00,CLR,,0.00,WeatherDisplay:10.37,2013-01-22 21:09:00,
2013-01-22 23:10:00,58.6,44.8,29.56,SSW,209,3.0,9.0,60,0.00,CLR,,0.00,WeatherDisplay:10.37,2013-01-22 21:10:00,
2013-01-22 23:13:00,58.8,44.1,29.56,SSW,202,5.9,5.9,58,0.00,CLR,,0.00,WeatherDisplay:10.37,2013-01-22 21:13:00,
2013-01-22 23:14:00,58.8,43.6,29.56,SSW,202,2.3,2.4,57,0.00,CLR,,0.00,WeatherDisplay:10.37,2013-01-22 21:14:00,
2013-01-22 23:15:00,58.8,42.7,29.56,SSW,202,8.1,8.1,55,0.00,CLR,,0.00,WeatherDisplay:10.37,2013-01-22 21:15:00,
2013-01-22 23:18:00,58.8,42.7,29.56,SW,225,9.2,9.2,55,0.00,CLR,,0.00,WeatherDisplay:10.37,2013-01-22 21:18:00,
2013-01-22 23:19:00,58.8,42.7,29.56,SSW,202,5.8,5.8,55,0.00,CLR,,0.00,WeatherDisplay:10.37,2013-01-22 21:19:00,
2013-01-22 23:20:00,58.8,43.1,29.56,WSW,248,5.8,5.8,56,0.00,CLR,,0.00,WeatherDisplay:10.37,2013-01-22 21:20:00,
2013-01-22 23:23:00,58.8,43.6,29.56,SSE,158,8.1,8.1,57,0.00,CLR,,0.00,WeatherDisplay:10.37,2013-01-22 21:23:00,
2013-01-22 23:24:00,58.6,43.4,29.56,South,180,4.6,4.6,57,0.00,CLR,,0.00,WeatherDisplay:10.37,2013-01-22 21:24:00,
2013-01-22 23:25:00,58.6,43.4,29.56,SW,225,5.8,5.8,57,0.00,CLR,,0.00,WeatherDisplay:10.37,2013-01-22 21:25:00,
2013-01-22 23:28:00,58.5,43.7,29.56,SSW,202,5.8,5.8,58,0.00,CLR,,0.00,WeatherDisplay:10.37,2013-01-22 21:28:00,
2013-01-22 23:29:00,58.5,43.7,29.56,WSW,248,4.6,4.6,58,0.00,CLR,,0.00,WeatherDisplay:10.37,2013-01-22 21:29:00,
2013-01-22 23:30:00,58.3,43.6,29.56,WSW,248,4.6,4.6,58,0.00,CLR,,0.00,WeatherDisplay:10.37,2013-01-22 21:30:00,
2013-01-22 23:32:00,58.1,43.8,29.56,SSW,202,3.5,3.5,59,0.00,CLR,,0.00,WeatherDisplay:10.37,2013-01-22 21:32:00,
2013-01-22 23:34:00,58.1,44.3,29.56,WNW,292,8.7,8.7,60,0.00,CLR,,0.00,WeatherDisplay:10.37,2013-01-22 21:34:00,
2013-01-22 23:35:00,58.1,44.3,29.56,South,180,3.5,4.3,60,0.00,CLR,,0.00,WeatherDisplay:10.37,2013-01-22 21:35:00,
2013-01-22 23:37:00,58.1,44.7,29.56,South,180,5.8,5.8,61,0.00,CLR,,0.00,WeatherDisplay:10.37,2013-01-22 21:37:00,
2013-01-22 23:38:00,58.1,44.7,29.56,SSW,202,8.1,8.1,61,0.00,CLR,,0.00,WeatherDisplay:10.37,2013-01-22 21:38:00,
2013-01-22 23:39:00,58.1,45.1,29.56,SSW,202,6.9,6.9,62,0.00,CLR,,0.00,WeatherDisplay:10.37,2013-01-22 21:39:00,
2013-01-22 23:40:00,58.1,45.1,29.56,SSW,206,3.0,8.0,62,0.00,CLR,,0.00,WeatherDisplay:10.37,2013-01-22 21:40:00,
2013-01-22 23:42:00,58.1,45.1,29.56,WSW,248,4.6,4.6,62,0.00,CLR,,0.00,WeatherDisplay:10.37,2013-01-22 21:42:00,
2013-01-22 23:43:00,58.1,45.6,29.56,SSW,202,3.5,3.5,63,0.00,CLR,,0.00,WeatherDisplay:10.37,2013-01-22 21:43:00,
2013-01-22 23:44:00,58.1,45.6,29.56,SSW,202,5.6,5.6,63,0.00,CLR,,0.00,WeatherDisplay:10.37,2013-01-22 21:44:00,
2013-01-22 23:45:00,58.1,45.6,29.56,South,180,5.8,5.8,63,0.00,CLR,,0.00,WeatherDisplay:10.37,2013-01-22 21:45:00,
2013-01-22 23:47:00,58.1,46.0,29.56,SW,225,12.7,12.7,64,0.00,CLR,,0.00,WeatherDisplay:10.37,2013-01-22 21:47:00,
2013-01-22 23:48:00,58.1,46.0,29.56,South,180,10.4,10.4,64,0.00,CLR,,0.00,WeatherDisplay:10.37,2013-01-22 21:48:00,
2013-01-22 23:49:00,58.1,46.0,29.56,SW,225,4.6,4.6,64,0.00,CLR,,0.00,WeatherDisplay:10.37,2013-01-22 21:49:00,
2013-01-22 23:50:00,58.1,46.0,29.56,South,180,5.8,5.8,64,0.00,CLR,,0.00,WeatherDisplay:10.37,2013-01-22 21:50:00,
2013-01-22 23:52:00,57.9,46.2,29.56,SW,225,4.6,4.6,65,0.00,CLR,,0.00,WeatherDisplay:10.37,2013-01-22 21:52:00,
2013-01-22 23:53:00,57.9,46.2,29.56,SW,225,5.8,5.8,65,0.00,CLR,,0.00,WeatherDisplay:10.37,2013-01-22 21:53:00,
2013-01-22 23:54:00,57.9,46.2,29.56,WSW,248,4.6,4.6,65,0.00,CLR,,0.00,WeatherDisplay:10.37,2013-01-22 21:54:00,
2013-01-22 23:55:00,57.9,46.2,29.56,SSW,202,4.6,4.6,65,0.00,CLR,,0.00,WeatherDisplay:10.37,2013-01-22 21:55:00,
2013-01-22 23:58:00,57.9,46.2,29.56,SSW,202,4.6,4.6,65,0.00,CLR,,0.00,WeatherDisplay:10.37,2013-01-22 21:58:00,
2013-01-22 23:59:00,57.9,46.2,29.56,WSW,248,4.6,4.6,65,0.00,CLR,,0.00,WeatherDisplay:10.37,2013-01-22 21:59:00,